Wetterdaten: Dienstag, 10.11.2020
Datum Zeit Temp. Aussen Temp. o. S. Temp +5cm Feuchte Auss Luftdruck Regen Sonnenschein Regendauer Solar Windben Empfang
10.11.2020 00:00 10,6 C 10,0 C 9,5 C 97 % 1023,8 hPa 0,0 l/m 0 min 0 min 0 W/m 6,4 km/h (2 Bft) 95,83 %
10.11.2020 00:02 10,6 C 10,0 C 9,5 C 97 % 1023,9 hPa 0,0 l/m 0 min 0 min 0 W/m 12,9 km/h (3 Bft) 94,74 %
10.11.2020 00:04 10,5 C 10,0 C 9,5 C 97 % 1023,9 hPa 0,0 l/m 0 min 0 min 0 W/m 3,2 km/h (1 Bft) 95,74 %
10.11.2020 00:08 10,5 C 9,4 C 9,5 C 97 % 1023,8 hPa 0,0 l/m 0 min 0 min 0 W/m 6,4 km/h (2 Bft) 94,68 %
10.11.2020 00:10 10,5 C 9,4 C 9,5 C 97 % 1023,9 hPa 0,0 l/m 0 min 0 min 0 W/m 12,9 km/h (3 Bft) 95,83 %
10.11.2020 00:12 10,5 C 9,4 C 9,5 C 97 % 1023,8 hPa 0,0 l/m 0 min 0 min 0 W/m 0,0 km/h (0 Bft) 95,74 %
10.11.2020 00:14 10,5 C 9,4 C 9,5 C 97 % 1023,8 hPa 0,0 l/m 0 min 0 min 0 W/m 16,1 km/h (3 Bft) 95,65 %
10.11.2020 00:16 10,5 C 10,0 C 9,5 C 97 % 1023,8 hPa 0,0 l/m 0 min 0 min 0 W/m 16,1 km/h (3 Bft) 95,74 %
10.11.2020 00:18 10,4 C 9,4 C 9,5 C 97 % 1023,8 hPa 0,0 l/m 0 min 0 min 0 W/m 12,9 km/h (3 Bft) 97,87 %
10.11.2020 00:20 10,4 C 9,4 C 9,5 C 97 % 1023,8 hPa 0,0 l/m 0 min 0 min 0 W/m 6,4 km/h (2 Bft) 91,49 %
10.11.2020 00:22 10,4 C 9,4 C 9,5 C 97 % 1023,9 hPa 0,0 l/m 0 min 0 min 0 W/m 6,4 km/h (2 Bft) 97,87 %
10.11.2020 00:24 10,4 C 9,4 C 9,5 C 97 % 1023,9 hPa 0,0 l/m 0 min 0 min 0 W/m 12,9 km/h (3 Bft) 97,83 %
10.11.2020 00:26 10,4 C 9,4 C 9,5 C 97 % 1023,9 hPa 0,0 l/m 0 min 0 min 0 W/m 3,2 km/h (1 Bft) 97,87 %
10.11.2020 00:28 10,4 C 9,4 C 9,5 C 97 % 1023,9 hPa 0,0 l/m 0 min 0 min 0 W/m 3,2 km/h (1 Bft) 97,62 %
10.11.2020 00:30 10,4 C 9,4 C 9,5 C 97 % 1023,9 hPa 0,0 l/m 0 min 0 min 0 W/m 3,2 km/h (1 Bft) 97,92 %
10.11.2020 00:32 10,4 C 9,4 C 9,5 C 97 % 1023,9 hPa 0,0 l/m 0 min 0 min 0 W/m 6,4 km/h (2 Bft) 100,00 %
10.11.2020 00:34 10,4 C 9,4 C 9,5 C 97 % 1023,9 hPa 0,0 l/m 0 min 0 min 0 W/m 12,9 km/h (3 Bft) 100,00 %
10.11.2020 00:36 10,3 C 9,4 C 9,5 C 97 % 1024,0 hPa 0,0 l/m 0 min 0 min 0 W/m 12,9 km/h (3 Bft) 100,00 %
10.11.2020 00:38 10,3 C 9,4 C 9,5 C 97 % 1024,0 hPa 0,0 l/m 0 min 0 min 0 W/m 3,2 km/h (1 Bft) 97,92 %
10.11.2020 00:40 10,3 C 9,4 C 9,5 C 97 % 1023,9 hPa 0,0 l/m 0 min 0 min 0 W/m 3,2 km/h (1 Bft) 100,00 %
10.11.2020 00:42 10,3 C 9,4 C 8,9 C 97 % 1024,0 hPa 0,0 l/m 0 min 0 min 0 W/m 3,2 km/h (1 Bft) 100,00 %
10.11.2020 00:44 10,3 C 9,4 C 8,9 C 97 % 1023,9 hPa 0,0 l/m 0 min 0 min 0 W/m 3,2 km/h (1 Bft) 100,00 %
10.11.2020 00:46 10,3 C 9,4 C 8,9 C 97 % 1023,9 hPa 0,0 l/m 0 min 0 min 0 W/m 6,4 km/h (2 Bft) 95,74 %
10.11.2020 00:48 10,3 C 9,4 C 8,9 C 97 % 1023,9 hPa 0,0 l/m 0 min 0 min 0 W/m 3,2 km/h (1 Bft) 97,83 %
10.11.2020 00:50 10,2 C 9,4 C 8,9 C 97 % 1024,0 hPa 0,0 l/m 0 min 0 min 0 W/m 6,4 km/h (2 Bft) 100,00 %
10.11.2020 00:52 10,2 C 9,4 C 8,9 C 97 % 1024,0 hPa 0,0 l/m 0 min 0 min 0 W/m 6,4 km/h (2 Bft) 100,00 %
10.11.2020 00:54 10,2 C 9,4 C 8,9 C 97 % 1024,0 hPa 0,0 l/m 0 min 0 min 0 W/m 6,4 km/h (2 Bft) 100,00 %
10.11.2020 00:56 10,2 C 9,4 C 8,9 C 97 % 1024,0 hPa 0,0 l/m 0 min 0 min 0 W/m 6,4 km/h (2 Bft) 100,00 %
10.11.2020 00:58 10,1 C 9,4 C 8,9 C 97 % 1024,0 hPa 0,0 l/m 0 min 0 min 0 W/m 12,9 km/h (3 Bft) 100,00 %
10.11.2020 01:00 10,1 C 9,4 C 8,9 C 97 % 1023,9 hPa 0,0 l/m 0 min 0 min 0 W/m 6,4 km/h (2 Bft) 100,00 %
10.11.2020 01:02 10,1 C 9,4 C 8,9 C 97 % 1023,9 hPa 0,0 l/m 0 min 0 min 0 W/m 12,9 km/h (3 Bft) 97,87 %
10.11.2020 01:04 10,1 C 9,4 C 8,9 C 97 % 1024,0 hPa 0,0 l/m 0 min 0 min 0 W/m 6,4 km/h (2 Bft) 100,00 %
10.11.2020 01:06 10,1 C 9,4 C 8,9 C 97 % 1024,0 hPa 0,0 l/m 0 min 0 min 0 W/m 0,0 km/h (0 Bft) 100,00 %
10.11.2020 01:08 10,1 C 9,4 C 8,9 C 97 % 1024,0 hPa 0,0 l/m 0 min 0 min 0 W/m 3,2 km/h (1 Bft) 100,00 %
10.11.2020 01:10 10,1 C 9,4 C 8,9 C 97 % 1024,0 hPa 0,0 l/m 0 min 0 min 0 W/m 12,9 km/h (3 Bft) 100,00 %
10.11.2020 01:12 10,1 C 9,4 C 8,9 C 97 % 1024,0 hPa 0,0 l/m 0 min 0 min 0 W/m 3,2 km/h (1 Bft) 100,00 %
10.11.2020 01:14 10,0 C 9,4 C 8,9 C 97 % 1024,0 hPa 0,0 l/m 0 min 0 min 0 W/m 3,2 km/h (1 Bft) 100,00 %
10.11.2020 01:16 10,0 C 9,4 C 8,9 C 97 % 1024,1 hPa 0,0 l/m 0 min 0 min 0 W/m 19,3 km/h (3 Bft) 100,00 %
10.11.2020 01:18 10,0 C 9,4 C 8,9 C 97 % 1024,1 hPa 0,0 l/m 0 min 0 min 0 W/m 6,4 km/h (2 Bft) 97,87 %
10.11.2020 01:20 10,0 C 9,4 C 8,9 C 97 % 1024,0 hPa 0,0 l/m 0 min 0 min 0 W/m 3,2 km/h (1 Bft) 97,87 %
10.11.2020 01:22 10,0 C 9,4 C 8,9 C 97 % 1024,0 hPa 0,0 l/m 0 min 0 min 0 W/m 6,4 km/h (2 Bft) 97,83 %
10.11.2020 01:24 10,0 C 9,4 C 8,9 C 97 % 1024,1 hPa 0,0 l/m 0 min 0 min 0 W/m 12,9 km/h (3 Bft) 95,74 %
10.11.2020 01:26 10,0 C 9,4 C 8,9 C 97 % 1024,0 hPa 0,0 l/m 0 min 0 min 0 W/m 6,4 km/h (2 Bft) 97,87 %
10.11.2020 01:28 10,0 C 9,4 C 8,9 C 97 % 1024,1 hPa 0,0 l/m 0 min 0 min 0 W/m 16,1 km/h (3 Bft) 95,74 %
10.11.2020 01:30 10,0 C 9,4 C 8,9 C 97 % 1024,0 hPa 0,0 l/m 0 min 0 min 0 W/m 19,3 km/h (3 Bft) 95,74 %
10.11.2020 01:32 9,9 C 8,9 C 8,9 C 97 % 1024,0 hPa 0,0 l/m 0 min 0 min 0 W/m 12,9 km/h (3 Bft) 95,74 %
10.11.2020 01:34 9,9 C 8,9 C 8,9 C 97 % 1024,0 hPa 0,0 l/m 0 min 0 min 0 W/m 6,4 km/h (2 Bft) 100,00 %
10.11.2020 01:36 9,9 C 8,9 C 8,9 C 97 % 1023,9 hPa 0,0 l/m 0 min 0 min 0 W/m 12,9 km/h (3 Bft) 95,83 %
10.11.2020 01:38 9,9 C 8,9 C 8,9 C 97 % 1023,9 hPa 0,0 l/m 0 min 0 min 0 W/m 12,9 km/h (3 Bft) 97,92 %
10.11.2020 01:40 9,9 C 8,9 C 8,9 C 97 % 1023,9 hPa 0,0 l/m 0 min 0 min 0 W/m 3,2 km/h (1 Bft) 97,87 %
10.11.2020 01:42 9,9 C 8,9 C 8,9 C 97 % 1023,9 hPa 0,0 l/m 0 min 0 min 0 W/m 16,1 km/h (3 Bft) 95,83 %
10.11.2020 01:44 9,8 C 8,9 C 8,9 C 97 % 1023,9 hPa 0,0 l/m 0 min 0 min 0 W/m 12,9 km/h (3 Bft) 97,92 %
10.11.2020 01:46 9,8 C 8,9 C 8,4 C 97 % 1023,9 hPa 0,0 l/m 0 min 0 min 0 W/m 12,9 km/h (3 Bft) 97,87 %
10.11.2020 01:48 9,8 C 8,9 C 8,4 C 97 % 1023,9 hPa 0,0 l/m 0 min 0 min 0 W/m 3,2 km/h (1 Bft) 97,87 %
10.11.2020 01:50 9,8 C 8,9 C 8,4 C 97 % 1023,9 hPa 0,0 l/m 0 min 0 min 0 W/m 6,4 km/h (2 Bft) 97,87 %
10.11.2020 01:52 9,8 C 8,9 C 8,4 C 97 % 1023,9 hPa 0,0 l/m 0 min 0 min 0 W/m 3,2 km/h (1 Bft) 93,62 %
10.11.2020 01:54 9,8 C 8,9 C 8,4 C 97 % 1023,9 hPa 0,0 l/m 0 min 0 min 0 W/m 3,2 km/h (1 Bft) 97,87 %
10.11.2020 01:56 9,8 C 8,9 C 8,4 C 97 % 1023,9 hPa 0,0 l/m 0 min 0 min 0 W/m 6,4 km/h (2 Bft) 95,65 %
10.11.2020 01:58 9,7 C 8,9 C 8,4 C 97 % 1023,9 hPa 0,0 l/m 0 min 0 min 0 W/m 6,4 km/h (2 Bft) 95,45 %
10.11.2020 02:00 9,7 C 8,9 C 8,4 C 97 % 1024,0 hPa 0,0 l/m 0 min 0 min 0 W/m 3,2 km/h (1 Bft) 95,83 %
10.11.2020 02:02 9,7 C 8,9 C 8,4 C 97 % 1024,0 hPa 0,0 l/m 0 min 0 min 0 W/m 6,4 km/h (2 Bft) 95,74 %
10.11.2020 02:04 9,7 C 8,9 C 8,4 C 97 % 1024,0 hPa 0,0 l/m 0 min 0 min 0 W/m 6,4 km/h (2 Bft) 97,83 %
10.11.2020 02:06 9,6 C 8,9 C 8,4 C 97 % 1024,0 hPa 0,0 l/m 0 min 0 min 0 W/m 19,3 km/h (3 Bft) 91,67 %
10.11.2020 02:08 9,6 C 8,9 C 8,4 C 97 % 1024,0 hPa 0,0 l/m 0 min 0 min 0 W/m 12,9 km/h (3 Bft) 97,87 %
10.11.2020 02:10 9,6 C 8,9 C 8,4 C 97 % 1024,0 hPa 0,0 l/m 0 min 0 min 0 W/m 6,4 km/h (2 Bft) 97,92 %
10.11.2020 02:12 9,6 C 8,9 C 8,4 C 97 % 1024,0 hPa 0,0 l/m 0 min 0 min 0 W/m 12,9 km/h (3 Bft) 97,87 %
10.11.2020 02:14 9,6 C 8,9 C 8,4 C 97 % 1024,0 hPa 0,0 l/m 0 min 0 min 0 W/m 6,4 km/h (2 Bft) 95,74 %
10.11.2020 02:16 9,6 C 8,9 C 8,4 C 97 % 1024,0 hPa 0,0 l/m 0 min 0 min 0 W/m 3,2 km/h (1 Bft) 93,62 %
10.11.2020 02:18 9,6 C 8,9 C 8,4 C 97 % 1024,1 hPa 0,0 l/m 0 min 0 min 0 W/m 6,4 km/h (2 Bft) 95,74 %
10.11.2020 02:20 9,6 C 8,9 C 8,4 C 97 % 1024,1 hPa 0,0 l/m 0 min 0 min 0 W/m 3,2 km/h (1 Bft) 95,65 %
10.11.2020 02:22 9,6 C 8,9 C 8,4 C 97 % 1024,1 hPa 0,0 l/m 0 min 0 min 0 W/m 16,1 km/h (3 Bft) 93,62 %
10.11.2020 02:24 9,6 C 8,9 C 8,4 C 97 % 1024,2 hPa 0,0 l/m 0 min 0 min 0 W/m 3,2 km/h (1 Bft) 95,74 %
10.11.2020 02:26 9,5 C 8,9 C 8,4 C 97 % 1024,2 hPa 0,0 l/m 0 min 0 min 0 W/m 6,4 km/h (2 Bft) 89,36 %
10.11.2020 02:28 9,5 C 8,9 C 8,4 C 97 % 1024,2 hPa 0,0 l/m 0 min 0 min 0 W/m 6,4 km/h (2 Bft) 95,74 %
10.11.2020 02:30 9,5 C 8,9 C 8,4 C 97 % 1024,2 hPa 0,0 l/m 0 min 0 min 0 W/m 3,2 km/h (1 Bft) 95,74 %
10.11.2020 02:32 9,5 C 8,9 C 8,4 C 97 % 1024,2 hPa 0,0 l/m 0 min 0 min 0 W/m 12,9 km/h (3 Bft) 95,65 %
10.11.2020 02:34 9,5 C 8,9 C 8,4 C 97 % 1024,1 hPa 0,0 l/m 0 min 0 min 0 W/m 0,0 km/h (0 Bft) 93,62 %
10.11.2020 02:36 9,5 C 8,9 C 8,4 C 97 % 1024,1 hPa 0,0 l/m 0 min 0 min 0 W/m 0,0 km/h (0 Bft) 97,62 %
10.11.2020 02:38 9,5 C 8,9 C 8,4 C 97 % 1024,2 hPa 0,0 l/m 0 min 0 min 0 W/m 0,0 km/h (0 Bft) 93,75 %
10.11.2020 02:40 9,5 C 8,9 C 8,4 C 97 % 1024,2 hPa 0,0 l/m 0 min 0 min 0 W/m 3,2 km/h (1 Bft) 93,48 %
10.11.2020 02:42 9,5 C 8,9 C 8,4 C 97 % 1024,2 hPa 0,0 l/m 0 min 0 min 0 W/m 0,0 km/h (0 Bft) 95,74 %
10.11.2020 02:44 9,5 C 8,3 C 8,4 C 97 % 1024,2 hPa 0,0 l/m 0 min 0 min 0 W/m 0,0 km/h (0 Bft) 95,83 %
10.11.2020 02:46 9,5 C 8,3 C 8,4 C 97 % 1024,2 hPa 0,0 l/m 0 min 0 min 0 W/m 0,0 km/h (0 Bft) 95,83 %
10.11.2020 02:48 9,4 C 8,3 C 8,4 C 97 % 1024,1 hPa 0,0 l/m 0 min 0 min 0 W/m 0,0 km/h (0 Bft) 95,83 %
10.11.2020 02:50 9,4 C 8,3 C 8,4 C 97 % 1024,2 hPa 0,0 l/m 0 min 0 min 0 W/m 0,0 km/h (0 Bft) 95,74 %
10.11.2020 02:52 9,4 C 8,3 C 8,4 C 97 % 1024,1 hPa 0,0 l/m 0 min 0 min 0 W/m 0,0 km/h (0 Bft) 95,74 %
10.11.2020 02:54 9,4 C 8,3 C 8,4 C 97 % 1024,1 hPa 0,0 l/m 0 min 0 min 0 W/m 3,2 km/h (1 Bft) 95,83 %
10.11.2020 02:56 9,4 C 8,3 C 8,4 C 97 % 1024,1 hPa 0,0 l/m 0 min 0 min 0 W/m 3,2 km/h (1 Bft) 93,62 %
10.11.2020 02:58 9,4 C 8,3 C 8,4 C 97 % 1024,1 hPa 0,0 l/m 0 min 0 min 0 W/m 0,0 km/h (0 Bft) 93,62 %
10.11.2020 03:00 9,4 C 8,3 C 8,4 C 97 % 1024,1 hPa 0,0 l/m 0 min 0 min 0 W/m 12,9 km/h (3 Bft) 97,87 %
10.11.2020 03:02 9,4 C 8,3 C 8,4 C 97 % 1024,1 hPa 0,0 l/m 0 min 0 min 0 W/m 12,9 km/h (3 Bft) 97,62 %
10.11.2020 03:04 9,3 C 8,3 C 8,4 C 97 % 1024,1 hPa 0,0 l/m 0 min 0 min 0 W/m 3,2 km/h (1 Bft) 96,15 %
10.11.2020 03:06 9,3 C 8,3 C 8,4 C 97 % 1024,2 hPa 0,0 l/m 0 min 0 min 0 W/m 16,1 km/h (3 Bft) 97,83 %
10.11.2020 03:08 9,3 C 8,3 C 8,4 C 97 % 1024,1 hPa 0,0 l/m 0 min 0 min 0 W/m 3,2 km/h (1 Bft) 97,87 %
10.11.2020 03:10 9,3 C 8,3 C 8,4 C 97 % 1024,1 hPa 0,0 l/m 0 min 0 min 0 W/m 6,4 km/h (2 Bft) 97,87 %
10.11.2020 03:12 9,3 C 8,3 C 8,4 C 97 % 1024,2 hPa 0,0 l/m 0 min 0 min 0 W/m 3,2 km/h (1 Bft) 97,62 %
10.11.2020 03:14 9,3 C 8,3 C 8,4 C 97 % 1024,1 hPa 0,0 l/m 0 min 0 min 0 W/m 12,9 km/h (3 Bft) 95,74 %
10.11.2020 03:16 9,3 C 8,3 C 8,4 C 97 % 1024,1 hPa 0,0 l/m 0 min 0 min 0 W/m 3,2 km/h (1 Bft) 97,92 %
10.11.2020 03:18 9,3 C 8,3 C 8,4 C 97 % 1024,1 hPa 0,0 l/m 0 min 0 min 0 W/m 0,0 km/h (0 Bft) 93,75 %
10.11.2020 03:20 9,3 C 8,3 C 8,4 C 97 % 1024,1 hPa 0,0 l/m 0 min 0 min 0 W/m 0,0 km/h (0 Bft) 97,92 %
10.11.2020 03:22 9,3 C 8,3 C 8,4 C 97 % 1024,1 hPa 0,0 l/m 0 min 0 min 0 W/m 0,0 km/h (0 Bft) 97,92 %
10.11.2020 03:24 9,3 C 8,3 C 8,4 C 97 % 1024,1 hPa 0,0 l/m 0 min 0 min 0 W/m 3,2 km/h (1 Bft) 97,87 %
10.11.2020 03:26 9,3 C 8,3 C 8,4 C 97 % 1024,1 hPa 0,0 l/m 0 min 0 min 0 W/m 6,4 km/h (2 Bft) 100,00 %
10.11.2020 03:28 9,3 C 8,3 C 8,4 C 97 % 1024,1 hPa 0,0 l/m 0 min 0 min 0 W/m 6,4 km/h (2 Bft) 97,87 %
10.11.2020 03:30 9,3 C 8,3 C 8,4 C 97 % 1024,1 hPa 0,0 l/m 0 min 0 min 0 W/m 12,9 km/h (3 Bft) 97,83 %
10.11.2020 03:32 9,3 C 8,3 C 8,4 C 97 % 1024,1 hPa 0,0 l/m 0 min 0 min 0 W/m 6,4 km/h (2 Bft) 100,00 %
10.11.2020 03:34 9,3 C 8,3 C 8,4 C 97 % 1024,1 hPa 0,0 l/m 0 min 0 min 0 W/m 6,4 km/h (2 Bft) 97,87 %
10.11.2020 03:36 9,3 C 8,3 C 8,4 C 97 % 1024,1 hPa 0,0 l/m 0 min 0 min 0 W/m 3,2 km/h (1 Bft) 97,62 %
10.11.2020 03:38 9,3 C 8,3 C 8,4 C 97 % 1024,0 hPa 0,0 l/m 0 min 0 min 0 W/m 3,2 km/h (1 Bft) 100,00 %
10.11.2020 03:40 9,3 C 8,3 C 8,4 C 97 % 1024,0 hPa 0,0 l/m 0 min 0 min 0 W/m 3,2 km/h (1 Bft) 97,87 %
10.11.2020 03:42 9,3 C 8,3 C 8,4 C 97 % 1024,0 hPa 0,0 l/m 0 min 0 min 0 W/m 3,2 km/h (1 Bft) 100,00 %
10.11.2020 03:44 9,3 C 8,3 C 8,4 C 97 % 1024,0 hPa 0,0 l/m 0 min 0 min 0 W/m 0,0 km/h (0 Bft) 97,92 %
10.11.2020 03:46 9,3 C 8,3 C 8,4 C 97 % 1024,0 hPa 0,0 l/m 0 min 0 min 0 W/m 3,2 km/h (1 Bft) 97,92 %
10.11.2020 03:48 9,2 C 8,3 C 8,4 C 97 % 1024,0 hPa 0,0 l/m 0 min 0 min 0 W/m 3,2 km/h (1 Bft) 100,00 %
10.11.2020 03:50 9,3 C 8,3 C 8,4 C 97 % 1024,0 hPa 0,0 l/m 0 min 0 min 0 W/m 6,4 km/h (2 Bft) 97,92 %
10.11.2020 03:52 9,3 C 8,3 C 8,4 C 97 % 1024,0 hPa 0,0 l/m 0 min 0 min 0 W/m 3,2 km/h (1 Bft) 97,83 %
10.11.2020 03:54 9,3 C 8,3 C 8,4 C 97 % 1024,0 hPa 0,0 l/m 0 min 0 min 0 W/m 3,2 km/h (1 Bft) 100,00 %
10.11.2020 03:56 9,2 C 8,3 C 8,4 C 97 % 1024,0 hPa 0,0 l/m 0 min 0 min 0 W/m 0,0 km/h (0 Bft) 100,00 %
10.11.2020 03:58 9,2 C 8,3 C 8,4 C 97 % 1023,9 hPa 0,0 l/m 0 min 0 min 0 W/m 3,2 km/h (1 Bft) 100,00 %
10.11.2020 04:00 9,2 C 8,3 C 8,4 C 97 % 1023,9 hPa 0,0 l/m 0 min 0 min 0 W/m 6,4 km/h (2 Bft) 100,00 %
10.11.2020 04:02 9,2 C 8,3 C 8,4 C 97 % 1023,9 hPa 0,0 l/m 0 min 0 min 0 W/m 3,2 km/h (1 Bft) 95,83 %
10.11.2020 04:04 9,3 C 8,9 C 8,4 C 97 % 1023,8 hPa 0,0 l/m 0 min 0 min 0 W/m 0,0 km/h (0 Bft) 100,00 %
10.11.2020 04:06 9,3 C 8,9 C 8,4 C 97 % 1023,8 hPa 0,0 l/m 0 min 0 min 0 W/m 0,0 km/h (0 Bft) 97,87 %
10.11.2020 04:08 9,3 C 8,9 C 8,4 C 97 % 1023,9 hPa 0,0 l/m 0 min 0 min 0 W/m 3,2 km/h (1 Bft) 100,00 %
10.11.2020 04:10 9,3 C 8,9 C 8,4 C 97 % 1023,9 hPa 0,0 l/m 0 min 0 min 0 W/m 3,2 km/h (1 Bft) 100,00 %
10.11.2020 04:12 9,3 C 8,9 C 8,4 C 97 % 1023,9 hPa 0,0 l/m 0 min 0 min 0 W/m 3,2 km/h (1 Bft) 100,00 %
10.11.2020 04:14 9,3 C 8,9 C 8,4 C 97 % 1023,8 hPa 0,0 l/m 0 min 0 min 0 W/m 3,2 km/h (1 Bft) 100,00 %
10.11.2020 04:16 9,3 C 8,9 C 8,4 C 98 % 1023,9 hPa 0,0 l/m 0 min 0 min 0 W/m 3,2 km/h (1 Bft) 100,00 %
10.11.2020 04:18 9,3 C 8,9 C 8,4 C 98 % 1023,9 hPa 0,0 l/m 0 min 0 min 0 W/m 0,0 km/h (0 Bft) 95,74 %
10.11.2020 04:20 9,3 C 8,9 C 8,4 C 98 % 1023,9 hPa 0,0 l/m 0 min 0 min 0 W/m 3,2 km/h (1 Bft) 100,00 %
10.11.2020 04:22 9,3 C 8,9 C 8,4 C 98 % 1023,9 hPa 0,0 l/m 0 min 0 min 0 W/m 0,0 km/h (0 Bft) 100,00 %
10.11.2020 04:24 9,3 C 8,9 C 8,4 C 98 % 1023,9 hPa 0,0 l/m 0 min 0 min 0 W/m 12,9 km/h (3 Bft) 100,00 %
10.11.2020 04:26 9,3 C 8,9 C 8,4 C 98 % 1023,9 hPa 0,0 l/m 0 min 0 min 0 W/m 3,2 km/h (1 Bft) 100,00 %
10.11.2020 04:28 9,3 C 8,9 C 8,4 C 98 % 1023,9 hPa 0,0 l/m 0 min 0 min 0 W/m 3,2 km/h (1 Bft) 57,45 %
10.11.2020 04:30 9,3 C 8,9 C 8,4 C 98 % 1023,9 hPa 0,0 l/m 0 min 0 min 0 W/m 3,2 km/h (1 Bft) 100,00 %
10.11.2020 04:32 9,3 C 8,9 C 8,4 C 98 % 1023,9 hPa 0,0 l/m 0 min 0 min 0 W/m 6,4 km/h (2 Bft) 100,00 %
10.11.2020 04:34 9,3 C 8,9 C 8,4 C 98 % 1023,9 hPa 0,0 l/m 0 min 0 min 0 W/m 3,2 km/h (1 Bft) 97,87 %
10.11.2020 04:36 9,3 C 8,9 C 8,4 C 98 % 1024,0 hPa 0,0 l/m 0 min 0 min 0 W/m 0,0 km/h (0 Bft) 97,83 %
10.11.2020 04:38 9,4 C 8,9 C 8,4 C 98 % 1024,0 hPa 0,0 l/m 0 min 0 min 0 W/m 3,2 km/h (1 Bft) 97,87 %
10.11.2020 04:40 9,3 C 8,9 C 8,4 C 98 % 1024,0 hPa 0,0 l/m 0 min 0 min 0 W/m 3,2 km/h (1 Bft) 100,00 %
10.11.2020 04:42 9,4 C 8,9 C 8,4 C 98 % 1024,0 hPa 0,0 l/m 0 min 0 min 0 W/m 6,4 km/h (2 Bft) 97,87 %
10.11.2020 04:44 9,4 C 8,9 C 8,4 C 98 % 1024,1 hPa 0,0 l/m 0 min 0 min 0 W/m 6,4 km/h (2 Bft) 97,92 %
10.11.2020 04:46 9,4 C 8,9 C 8,4 C 98 % 1024,1 hPa 0,0 l/m 0 min 0 min 0 W/m 3,2 km/h (1 Bft) 97,87 %
10.11.2020 04:48 9,4 C 8,9 C 8,4 C 98 % 1024,1 hPa 0,0 l/m 0 min 0 min 0 W/m 3,2 km/h (1 Bft) 100,00 %
10.11.2020 04:50 9,4 C 8,9 C 8,4 C 98 % 1024,1 hPa 0,0 l/m 0 min 0 min 0 W/m 12,9 km/h (3 Bft) 97,87 %
10.11.2020 04:52 9,4 C 8,9 C 8,4 C 98 % 1024,1 hPa 0,0 l/m 0 min 0 min 0 W/m 3,2 km/h (1 Bft) 93,62 %
10.11.2020 04:54 9,4 C 8,9 C 8,4 C 98 % 1024,2 hPa 0,0 l/m 0 min 0 min 0 W/m 3,2 km/h (1 Bft) 97,87 %
10.11.2020 04:56 9,4 C 8,9 C 8,4 C 98 % 1024,1 hPa 0,0 l/m 0 min 0 min 0 W/m 6,4 km/h (2 Bft) 95,74 %
10.11.2020 04:58 9,4 C 8,9 C 8,4 C 98 % 1024,1 hPa 0,0 l/m 0 min 0 min 0 W/m 3,2 km/h (1 Bft) 97,87 %
10.11.2020 05:00 9,4 C 8,9 C 8,4 C 98 % 1024,2 hPa 0,0 l/m 0 min 0 min 0 W/m 3,2 km/h (1 Bft) 97,56 %
10.11.2020 05:02 9,4 C 8,9 C 8,4 C 98 % 1024,2 hPa 0,0 l/m 0 min 0 min 0 W/m 6,4 km/h (2 Bft) 94,00 %
10.11.2020 05:04 9,4 C 8,9 C 8,4 C 98 % 1024,2 hPa 0,0 l/m 0 min 0 min 0 W/m 3,2 km/h (1 Bft) 97,87 %
10.11.2020 05:06 9,4 C 8,9 C 8,4 C 98 % 1024,2 hPa 0,0 l/m 0 min 0 min 0 W/m 6,4 km/h (2 Bft) 97,92 %
10.11.2020 05:08 9,4 C 8,3 C 8,4 C 98 % 1024,2 hPa 0,0 l/m 0 min 0 min 0 W/m 0,0 km/h (0 Bft) 97,92 %
10.11.2020 05:10 9,4 C 8,3 C 8,4 C 98 % 1024,2 hPa 0,0 l/m 0 min 0 min 0 W/m 0,0 km/h (0 Bft) 93,62 %
10.11.2020 05:12 9,4 C 8,3 C 8,4 C 98 % 1024,2 hPa 0,0 l/m 0 min 0 min 0 W/m 0,0 km/h (0 Bft) 97,87 %
10.11.2020 05:14 9,3 C 8,3 C 8,4 C 98 % 1024,3 hPa 0,0 l/m 0 min 0 min 0 W/m 0,0 km/h (0 Bft) 97,83 %
10.11.2020 05:16 9,3 C 8,3 C 8,4 C 98 % 1024,3 hPa 0,0 l/m 0 min 0 min 0 W/m 0,0 km/h (0 Bft) 97,87 %
10.11.2020 05:18 9,3 C 8,3 C 8,4 C 97 % 1024,3 hPa 0,0 l/m 0 min 0 min 0 W/m 0,0 km/h (0 Bft) 95,74 %
10.11.2020 05:20 9,3 C 8,3 C 8,4 C 97 % 1024,3 hPa 0,0 l/m 0 min 0 min 0 W/m 0,0 km/h (0 Bft) 97,87 %
10.11.2020 05:22 9,3 C 8,3 C 8,4 C 97 % 1024,3 hPa 0,0 l/m 0 min 0 min 0 W/m 0,0 km/h (0 Bft) 97,56 %
10.11.2020 05:24 9,3 C 8,3 C 8,4 C 97 % 1024,3 hPa 0,0 l/m 0 min 0 min 0 W/m 0,0 km/h (0 Bft) 97,92 %
10.11.2020 05:26 9,3 C 8,3 C 8,4 C 98 % 1024,4 hPa 0,0 l/m 0 min 0 min 0 W/m 0,0 km/h (0 Bft) 95,83 %
10.11.2020 05:28 9,2 C 8,3 C 7,8 C 97 % 1024,4 hPa 0,0 l/m 0 min 0 min 0 W/m 0,0 km/h (0 Bft) 95,83 %
10.11.2020 05:30 9,2 C 8,3 C 7,8 C 97 % 1024,4 hPa 0,0 l/m 0 min 0 min 0 W/m 0,0 km/h (0 Bft) 95,83 %
10.11.2020 05:32 9,2 C 8,3 C 7,8 C 97 % 1024,3 hPa 0,0 l/m 0 min 0 min 0 W/m 0,0 km/h (0 Bft) 93,62 %
10.11.2020 05:34 9,2 C 8,3 C 7,8 C 97 % 1024,4 hPa 0,0 l/m 0 min 0 min 0 W/m 3,2 km/h (1 Bft) 97,92 %
10.11.2020 05:36 9,1 C 8,3 C 7,8 C 97 % 1024,3 hPa 0,0 l/m 0 min 0 min 0 W/m 3,2 km/h (1 Bft) 97,87 %
10.11.2020 05:38 9,1 C 8,3 C 7,8 C 97 % 1024,3 hPa 0,0 l/m 0 min 0 min 0 W/m 6,4 km/h (2 Bft) 97,83 %
10.11.2020 05:40 9,1 C 8,3 C 7,8 C 97 % 1024,3 hPa 0,0 l/m 0 min 0 min 0 W/m 6,4 km/h (2 Bft) 97,87 %
10.11.2020 05:42 9,1 C 8,3 C 7,8 C 97 % 1024,4 hPa 0,0 l/m 0 min 0 min 0 W/m 0,0 km/h (0 Bft) 95,74 %
10.11.2020 05:44 9,1 C 8,3 C 7,8 C 97 % 1024,4 hPa 0,0 l/m 0 min 0 min 0 W/m 3,2 km/h (1 Bft) 97,87 %
10.11.2020 05:46 9,0 C 8,3 C 7,8 C 97 % 1024,4 hPa 0,0 l/m 0 min 0 min 0 W/m 12,9 km/h (3 Bft) 97,87 %
10.11.2020 05:48 9,0 C 8,3 C 7,8 C 97 % 1024,3 hPa 0,0 l/m 0 min 0 min 0 W/m 3,2 km/h (1 Bft) 95,74 %
10.11.2020 05:50 9,0 C 8,3 C 7,8 C 97 % 1024,4 hPa 0,0 l/m 0 min 0 min 0 W/m 3,2 km/h (1 Bft) 95,65 %
10.11.2020 05:52 9,0 C 8,3 C 7,8 C 97 % 1024,3 hPa 0,0 l/m 0 min 0 min 0 W/m 3,2 km/h (1 Bft) 95,74 %
10.11.2020 05:54 9,0 C 8,3 C 7,8 C 97 % 1024,4 hPa 0,0 l/m 0 min 0 min 0 W/m 3,2 km/h (1 Bft) 96,15 %
10.11.2020 05:56 9,0 C 7,8 C 7,8 C 97 % 1024,4 hPa 0,0 l/m 0 min 0 min 0 W/m 12,9 km/h (3 Bft) 95,83 %
10.11.2020 05:58 9,0 C 8,3 C 7,8 C 97 % 1024,3 hPa 0,0 l/m 0 min 0 min 0 W/m 6,4 km/h (2 Bft) 95,74 %
10.11.2020 06:00 9,0 C 7,8 C 7,8 C 97 % 1024,4 hPa 0,0 l/m 0 min 0 min 0 W/m 6,4 km/h (2 Bft) 93,75 %
10.11.2020 06:02 8,9 C 7,8 C 7,8 C 97 % 1024,4 hPa 0,0 l/m 0 min 0 min 0 W/m 6,4 km/h (2 Bft) 91,30 %
10.11.2020 06:04 8,9 C 7,8 C 7,8 C 97 % 1024,4 hPa 0,0 l/m 0 min 0 min 0 W/m 6,4 km/h (2 Bft) 95,45 %
10.11.2020 06:08 8,9 C 7,8 C 7,8 C 98 % 1024,4 hPa 0,0 l/m 0 min 0 min 0 W/m 6,4 km/h (2 Bft) 96,34 %
10.11.2020 06:10 8,9 C 7,8 C 7,8 C 98 % 1024,4 hPa 0,0 l/m 0 min 0 min 0 W/m 3,2 km/h (1 Bft) 93,48 %
10.11.2020 06:12 8,9 C 7,8 C 7,8 C 98 % 1024,4 hPa 0,0 l/m 0 min 0 min 0 W/m 6,4 km/h (2 Bft) 95,74 %
10.11.2020 06:14 8,9 C 7,8 C 7,8 C 97 % 1024,3 hPa 0,0 l/m 0 min 0 min 0 W/m 3,2 km/h (1 Bft) 93,75 %
10.11.2020 06:16 8,8 C 7,8 C 7,8 C 97 % 1024,4 hPa 0,0 l/m 0 min 0 min 0 W/m 3,2 km/h (1 Bft) 97,92 %
10.11.2020 06:18 8,8 C 7,8 C 7,8 C 97 % 1024,4 hPa 0,0 l/m 0 min 0 min 0 W/m 3,2 km/h (1 Bft) 95,83 %
10.11.2020 06:20 8,8 C 7,8 C 7,8 C 97 % 1024,4 hPa 0,0 l/m 0 min 0 min 0 W/m 3,2 km/h (1 Bft) 97,87 %
10.11.2020 06:22 8,8 C 7,8 C 7,8 C 97 % 1024,4 hPa 0,0 l/m 0 min 0 min 0 W/m 3,2 km/h (1 Bft) 95,83 %
10.11.2020 06:24 8,8 C 7,8 C 7,8 C 97 % 1024,4 hPa 0,0 l/m 0 min 0 min 0 W/m 3,2 km/h (1 Bft) 97,87 %
10.11.2020 06:26 8,8 C 7,8 C 7,8 C 97 % 1024,4 hPa 0,0 l/m 0 min 0 min 0 W/m 0,0 km/h (0 Bft) 95,65 %
10.11.2020 06:28 8,8 C 7,8 C 7,8 C 97 % 1024,4 hPa 0,0 l/m 0 min 0 min 0 W/m 6,4 km/h (2 Bft) 97,87 %
10.11.2020 06:30 8,8 C 7,8 C 7,8 C 97 % 1024,4 hPa 0,0 l/m 0 min 0 min 0 W/m 3,2 km/h (1 Bft) 95,74 %
10.11.2020 06:32 8,8 C 7,8 C 7,8 C 97 % 1024,4 hPa 0,0 l/m 0 min 0 min 0 W/m 0,0 km/h (0 Bft) 97,87 %
10.11.2020 06:34 8,7 C 7,8 C 7,8 C 97 % 1024,4 hPa 0,0 l/m 0 min 0 min 0 W/m 3,2 km/h (1 Bft) 97,87 %
10.11.2020 06:36 8,7 C 7,8 C 7,2 C 97 % 1024,4 hPa 0,0 l/m 0 min 0 min 0 W/m 3,2 km/h (1 Bft) 95,65 %
10.11.2020 06:38 8,6 C 7,8 C 7,2 C 97 % 1024,4 hPa 0,0 l/m 0 min 0 min 0 W/m 6,4 km/h (2 Bft) 96,61 %
10.11.2020 06:40 8,6 C 7,8 C 7,8 C 97 % 1024,4 hPa 0,0 l/m 0 min 0 min 0 W/m 6,4 km/h (2 Bft) 100,00 %
10.11.2020 06:42 8,6 C 7,8 C 7,2 C 97 % 1024,4 hPa 0,0 l/m 0 min 0 min 0 W/m 3,2 km/h (1 Bft) 95,74 %
10.11.2020 06:44 8,6 C 7,8 C 7,2 C 97 % 1024,4 hPa 0,0 l/m 0 min 0 min 0 W/m 0,0 km/h (0 Bft) 97,87 %
10.11.2020 06:46 8,6 C 7,8 C 7,2 C 97 % 1024,4 hPa 0,0 l/m 0 min 0 min 0 W/m 3,2 km/h (1 Bft) 97,87 %
10.11.2020 06:48 8,6 C 7,2 C 7,2 C 97 % 1024,4 hPa 0,0 l/m 0 min 0 min 0 W/m 0,0 km/h (0 Bft) 97,83 %
10.11.2020 06:50 8,6 C 7,2 C 7,2 C 97 % 1024,3 hPa 0,0 l/m 0 min 0 min 0 W/m 0,0 km/h (0 Bft) 95,74 %
10.11.2020 06:52 8,5 C 7,2 C 7,2 C 97 % 1024,3 hPa 0,0 l/m 0 min 0 min 0 W/m 0,0 km/h (0 Bft) 95,74 %
10.11.2020 06:54 8,5 C 7,2 C 7,2 C 97 % 1024,4 hPa 0,0 l/m 0 min 0 min 0 W/m 0,0 km/h (0 Bft) 97,87 %
10.11.2020 06:56 8,5 C 7,2 C 7,2 C 97 % 1024,4 hPa 0,0 l/m 0 min 0 min 0 W/m 3,2 km/h (1 Bft) 97,87 %
10.11.2020 06:58 8,5 C 7,2 C 7,2 C 97 % 1024,3 hPa 0,0 l/m 0 min 0 min 0 W/m 12,9 km/h (3 Bft) 97,87 %
10.11.2020 07:00 8,5 C 7,2 C 7,2 C 97 % 1024,4 hPa 0,0 l/m 0 min 0 min 0 W/m 3,2 km/h (1 Bft) 97,56 %
10.11.2020 07:02 8,4 C 7,2 C 7,2 C 97 % 1024,4 hPa 0,0 l/m 0 min 0 min 0 W/m 3,2 km/h (1 Bft) 97,87 %
10.11.2020 07:04 8,4 C 7,2 C 7,2 C 97 % 1024,4 hPa 0,0 l/m 0 min 0 min 0 W/m 3,2 km/h (1 Bft) 95,74 %
10.11.2020 07:06 8,4 C 7,2 C 7,2 C 97 % 1024,4 hPa 0,0 l/m 0 min 0 min 0 W/m 0,0 km/h (0 Bft) 97,92 %
10.11.2020 07:08 8,4 C 7,2 C 7,2 C 97 % 1024,4 hPa 0,0 l/m 0 min 0 min 0 W/m 3,2 km/h (1 Bft) 98,31 %
10.11.2020 07:10 8,4 C 7,2 C 7,2 C 97 % 1024,4 hPa 0,0 l/m 0 min 0 min 0 W/m 6,4 km/h (2 Bft) 97,14 %
10.11.2020 07:12 8,4 C 7,2 C 7,2 C 97 % 1024,3 hPa 0,0 l/m 0 min 0 min 0 W/m 0,0 km/h (0 Bft) 97,87 %
10.11.2020 07:14 8,4 C 7,2 C 7,2 C 97 % 1024,4 hPa 0,0 l/m 0 min 0 min 0 W/m 0,0 km/h (0 Bft) 100,00 %
10.11.2020 07:16 8,4 C 7,2 C 7,2 C 97 % 1024,3 hPa 0,0 l/m 0 min 0 min 0 W/m 0,0 km/h (0 Bft) 100,00 %
10.11.2020 07:18 8,3 C 7,2 C 7,2 C 97 % 1024,4 hPa 0,0 l/m 0 min 0 min 0 W/m 3,2 km/h (1 Bft) 100,00 %
10.11.2020 07:20 8,3 C 7,2 C 7,2 C 97 % 1024,5 hPa 0,0 l/m 0 min 0 min 0 W/m 0,0 km/h (0 Bft) 97,83 %
10.11.2020 07:22 8,3 C 7,2 C 7,2 C 97 % 1024,4 hPa 0,0 l/m 0 min 0 min 0 W/m 0,0 km/h (0 Bft) 95,74 %
10.11.2020 07:24 8,3 C 7,2 C 7,2 C 97 % 1024,4 hPa 0,0 l/m 0 min 0 min 0 W/m 3,2 km/h (1 Bft) 97,92 %
10.11.2020 07:26 8,3 C 7,2 C 7,2 C 97 % 1024,5 hPa 0,0 l/m 0 min 0 min 0 W/m 0,0 km/h (0 Bft) 97,87 %
10.11.2020 07:28 8,3 C 7,2 C 7,2 C 97 % 1024,5 hPa 0,0 l/m 0 min 0 min 0 W/m 0,0 km/h (0 Bft) 97,87 %
10.11.2020 07:30 8,3 C 7,2 C 7,2 C 97 % 1024,5 hPa 0,0 l/m 0 min 0 min 0 W/m 0,0 km/h (0 Bft) 95,65 %
10.11.2020 07:32 8,3 C 7,2 C 7,2 C 97 % 1024,5 hPa 0,0 l/m 0 min 0 min 0 W/m 0,0 km/h (0 Bft) 95,74 %
10.11.2020 07:34 8,3 C 7,2 C 7,2 C 97 % 1024,6 hPa 0,0 l/m 0 min 0 min 0 W/m 0,0 km/h (0 Bft) 100,00 %
10.11.2020 07:36 8,2 C 7,2 C 7,2 C 97 % 1024,6 hPa 0,0 l/m 0 min 0 min 0 W/m 0,0 km/h (0 Bft) 100,00 %
10.11.2020 07:38 8,2 C 7,2 C 7,2 C 98 % 1024,7 hPa 0,0 l/m 0 min 0 min 0 W/m 0,0 km/h (0 Bft) 94,83 %
10.11.2020 07:40 8,3 C 7,2 C 7,2 C 98 % 1024,7 hPa 0,0 l/m 0 min 0 min 0 W/m 0,0 km/h (0 Bft) 97,22 %
10.11.2020 07:42 8,3 C 7,8 C 7,2 C 98 % 1024,8 hPa 0,0 l/m 0 min 0 min 0 W/m 0,0 km/h (0 Bft) 97,83 %
10.11.2020 07:44 8,3 C 7,8 C 7,2 C 98 % 1024,8 hPa 0,0 l/m 0 min 0 min 0 W/m 3,2 km/h (1 Bft) 97,92 %
10.11.2020 07:46 8,2 C 7,8 C 7,2 C 98 % 1024,9 hPa 0,0 l/m 0 min 0 min 4 W/m 6,4 km/h (2 Bft) 97,83 %
10.11.2020 07:48 8,2 C 7,2 C 7,2 C 98 % 1024,9 hPa 0,0 l/m 0 min 0 min 5 W/m 0,0 km/h (0 Bft) 97,87 %
10.11.2020 07:50 8,3 C 7,2 C 7,2 C 98 % 1024,8 hPa 0,0 l/m 0 min 0 min 5 W/m 0,0 km/h (0 Bft) 97,87 %
10.11.2020 07:52 8,2 C 7,2 C 7,2 C 98 % 1024,9 hPa 0,0 l/m 0 min 0 min 7 W/m 3,2 km/h (1 Bft) 97,87 %
10.11.2020 07:54 8,2 C 7,2 C 7,2 C 98 % 1024,9 hPa 0,0 l/m 0 min 0 min 7 W/m 0,0 km/h (0 Bft) 97,87 %
10.11.2020 07:56 8,2 C 7,2 C 7,2 C 97 % 1024,9 hPa 0,0 l/m 0 min 0 min 8 W/m 0,0 km/h (0 Bft) 97,87 %
10.11.2020 07:58 8,2 C 7,2 C 7,2 C 97 % 1024,9 hPa 0,0 l/m 0 min 0 min 9 W/m 0,0 km/h (0 Bft) 95,65 %
10.11.2020 08:00 8,2 C 7,2 C 7,2 C 98 % 1024,9 hPa 0,0 l/m 0 min 0 min 9 W/m 0,0 km/h (0 Bft) 95,74 %
10.11.2020 08:02 8,2 C 7,2 C 7,2 C 97 % 1025,0 hPa 0,0 l/m 0 min 0 min 11 W/m 0,0 km/h (0 Bft) 94,00 %
10.11.2020 08:04 8,2 C 7,2 C 6,7 C 97 % 1025,0 hPa 0,0 l/m 0 min 0 min 12 W/m 0,0 km/h (0 Bft) 97,87 %
10.11.2020 08:06 8,1 C 7,2 C 6,7 C 97 % 1025,0 hPa 0,0 l/m 0 min 0 min 12 W/m 0,0 km/h (0 Bft) 97,56 %
10.11.2020 08:08 8,1 C 7,2 C 6,7 C 97 % 1025,1 hPa 0,0 l/m 0 min 0 min 13 W/m 0,0 km/h (0 Bft) 98,11 %
10.11.2020 08:10 8,1 C 7,2 C 7,2 C 97 % 1025,1 hPa 0,0 l/m 0 min 0 min 14 W/m 0,0 km/h (0 Bft) 100,00 %
10.11.2020 08:12 8,1 C 7,8 C 7,2 C 97 % 1025,1 hPa 0,0 l/m 0 min 0 min 15 W/m 0,0 km/h (0 Bft) 100,00 %
10.11.2020 08:14 8,1 C 7,8 C 7,2 C 97 % 1025,1 hPa 0,0 l/m 0 min 0 min 16 W/m 3,2 km/h (1 Bft) 100,00 %
10.11.2020 08:16 8,1 C 7,8 C 7,2 C 98 % 1025,2 hPa 0,0 l/m 0 min 0 min 17 W/m 3,2 km/h (1 Bft) 100,00 %
10.11.2020 08:18 8,1 C 7,8 C 7,2 C 98 % 1025,1 hPa 0,0 l/m 0 min 0 min 18 W/m 3,2 km/h (1 Bft) 100,00 %
10.11.2020 08:20 8,1 C 7,8 C 7,2 C 98 % 1025,1 hPa 0,0 l/m 0 min 0 min 18 W/m 0,0 km/h (0 Bft) 100,00 %
10.11.2020 08:22 8,1 C 7,8 C 7,2 C 98 % 1025,0 hPa 0,0 l/m 0 min 0 min 18 W/m 0,0 km/h (0 Bft) 95,74 %
10.11.2020 08:24 8,1 C 7,8 C 7,2 C 98 % 1025,0 hPa 0,0 l/m 0 min 0 min 19 W/m 0,0 km/h (0 Bft) 100,00 %
10.11.2020 08:26 8,1 C 7,8 C 7,2 C 98 % 1025,1 hPa 0,0 l/m 0 min 0 min 19 W/m 0,0 km/h (0 Bft) 95,74 %
10.11.2020 08:28 8,1 C 7,8 C 7,2 C 98 % 1025,1 hPa 0,0 l/m 0 min 0 min 20 W/m 0,0 km/h (0 Bft) 97,83 %
10.11.2020 08:30 8,1 C 7,8 C 7,2 C 98 % 1025,1 hPa 0,0 l/m 0 min 0 min 20 W/m 0,0 km/h (0 Bft) 97,87 %
10.11.2020 08:32 8,1 C 7,8 C 7,2 C 98 % 1025,1 hPa 0,0 l/m 0 min 0 min 23 W/m 0,0 km/h (0 Bft) 97,87 %
10.11.2020 08:34 8,1 C 7,8 C 7,2 C 98 % 1025,2 hPa 0,0 l/m 0 min 0 min 24 W/m 3,2 km/h (1 Bft) 97,92 %
10.11.2020 08:36 8,1 C 7,8 C 7,2 C 98 % 1025,2 hPa 0,0 l/m 0 min 0 min 25 W/m 0,0 km/h (0 Bft) 95,74 %
10.11.2020 08:38 8,2 C 7,8 C 7,2 C 98 % 1025,2 hPa 0,0 l/m 0 min 0 min 26 W/m 6,4 km/h (2 Bft) 97,87 %
10.11.2020 08:40 8,2 C 7,8 C 7,8 C 98 % 1025,2 hPa 0,0 l/m 0 min 0 min 26 W/m 3,2 km/h (1 Bft) 97,87 %
10.11.2020 08:42 8,2 C 7,8 C 7,8 C 98 % 1025,2 hPa 0,0 l/m 0 min 0 min 26 W/m 0,0 km/h (0 Bft) 93,75 %
10.11.2020 08:44 8,2 C 8,3 C 7,8 C 98 % 1025,2 hPa 0,0 l/m 0 min 0 min 28 W/m 6,4 km/h (2 Bft) 95,83 %
10.11.2020 08:46 8,3 C 8,3 C 7,8 C 98 % 1025,2 hPa 0,0 l/m 0 min 0 min 28 W/m 3,2 km/h (1 Bft) 97,92 %
10.11.2020 08:48 8,3 C 8,3 C 7,8 C 98 % 1025,2 hPa 0,0 l/m 0 min 0 min 30 W/m 3,2 km/h (1 Bft) 95,74 %
10.11.2020 08:50 8,3 C 8,3 C 7,8 C 98 % 1025,2 hPa 0,0 l/m 0 min 0 min 30 W/m 6,4 km/h (2 Bft) 95,65 %
10.11.2020 08:52 8,3 C 8,3 C 7,8 C 98 % 1025,2 hPa 0,0 l/m 0 min 0 min 32 W/m 3,2 km/h (1 Bft) 97,87 %
10.11.2020 08:54 8,4 C 8,3 C 7,8 C 98 % 1025,3 hPa 0,0 l/m 0 min 0 min 33 W/m 3,2 km/h (1 Bft) 97,87 %
10.11.2020 08:56 8,4 C 8,3 C 7,8 C 98 % 1025,3 hPa 0,0 l/m 0 min 0 min 36 W/m 3,2 km/h (1 Bft) 97,87 %
10.11.2020 08:58 8,4 C 8,3 C 7,8 C 98 % 1025,3 hPa 0,0 l/m 0 min 0 min 41 W/m 6,4 km/h (2 Bft) 97,87 %
10.11.2020 09:00 8,4 C 8,9 C 7,8 C 98 % 1025,3 hPa 0,0 l/m 2 min 0 min 86 W/m 3,2 km/h (1 Bft) 93,62 %
10.11.2020 09:02 8,5 C 10,0 C 7,8 C 98 % 1025,3 hPa 0,0 l/m 2 min 0 min 127 W/m 3,2 km/h (1 Bft) 97,87 %
10.11.2020 09:04 8,5 C 9,4 C 8,4 C 98 % 1025,3 hPa 0,0 l/m 2 min 0 min 135 W/m 3,2 km/h (1 Bft) 95,74 %
10.11.2020 09:06 8,5 C 9,4 C 8,4 C 98 % 1025,4 hPa 0,0 l/m 2 min 0 min 142 W/m 16,1 km/h (3 Bft) 95,74 %
10.11.2020 09:08 8,6 C 10,0 C 8,4 C 98 % 1025,4 hPa 0,0 l/m 2 min 0 min 147 W/m 3,2 km/h (1 Bft) 97,87 %
10.11.2020 09:10 8,6 C 10,0 C 8,4 C 98 % 1025,4 hPa 0,0 l/m 2 min 0 min 150 W/m 6,4 km/h (2 Bft) 100,00 %
10.11.2020 09:12 8,7 C 10,0 C 8,4 C 98 % 1025,3 hPa 0,0 l/m 2 min 0 min 152 W/m 3,2 km/h (1 Bft) 100,00 %
10.11.2020 09:14 8,8 C 10,6 C 8,4 C 98 % 1025,4 hPa 0,0 l/m 2 min 0 min 155 W/m 3,2 km/h (1 Bft) 100,00 %
10.11.2020 09:16 8,8 C 10,6 C 8,4 C 98 % 1025,4 hPa 0,0 l/m 2 min 0 min 158 W/m 3,2 km/h (1 Bft) 100,00 %
10.11.2020 09:18 8,9 C 10,6 C 8,4 C 98 % 1025,4 hPa 0,0 l/m 2 min 0 min 161 W/m 16,1 km/h (3 Bft) 100,00 %
10.11.2020 09:20 9,0 C 10,0 C 8,4 C 98 % 1025,4 hPa 0,0 l/m 2 min 0 min 164 W/m 16,1 km/h (3 Bft) 100,00 %
10.11.2020 09:22 9,0 C 10,0 C 8,9 C 98 % 1025,4 hPa 0,0 l/m 2 min 0 min 168 W/m 16,1 km/h (3 Bft) 100,00 %
10.11.2020 09:24 9,1 C 10,0 C 8,9 C 98 % 1025,4 hPa 0,0 l/m 2 min 0 min 171 W/m 6,4 km/h (2 Bft) 97,87 %
10.11.2020 09:26 9,1 C 10,0 C 8,9 C 98 % 1025,4 hPa 0,0 l/m 2 min 0 min 171 W/m 3,2 km/h (1 Bft) 100,00 %
10.11.2020 09:28 9,2 C 10,0 C 8,9 C 99 % 1025,4 hPa 0,0 l/m 2 min 0 min 173 W/m 6,4 km/h (2 Bft) 100,00 %
10.11.2020 09:30 9,3 C 10,0 C 8,9 C 99 % 1025,4 hPa 0,0 l/m 2 min 0 min 177 W/m 6,4 km/h (2 Bft) 97,83 %
10.11.2020 09:32 9,3 C 10,0 C 8,9 C 99 % 1025,5 hPa 0,0 l/m 2 min 0 min 182 W/m 6,4 km/h (2 Bft) 97,92 %
10.11.2020 09:34 9,3 C 10,0 C 8,9 C 99 % 1025,4 hPa 0,0 l/m 2 min 0 min 183 W/m 16,1 km/h (3 Bft) 100,00 %
10.11.2020 09:36 9,4 C 10,0 C 8,9 C 99 % 1025,5 hPa 0,0 l/m 2 min 0 min 185 W/m 16,1 km/h (3 Bft) 100,00 %
10.11.2020 09:38 9,4 C 10,0 C 8,9 C 99 % 1025,5 hPa 0,0 l/m 2 min 0 min 188 W/m 16,1 km/h (3 Bft) 100,00 %
10.11.2020 09:40 9,4 C 10,0 C 8,9 C 99 % 1025,6 hPa 0,0 l/m 2 min 0 min 191 W/m 6,4 km/h (2 Bft) 100,00 %
10.11.2020 09:42 9,4 C 10,0 C 9,5 C 98 % 1025,6 hPa 0,0 l/m 2 min 0 min 193 W/m 12,9 km/h (3 Bft) 97,83 %
10.11.2020 09:44 9,5 C 10,0 C 9,5 C 99 % 1025,6 hPa 0,0 l/m 2 min 0 min 172 W/m 16,1 km/h (3 Bft) 97,62 %
10.11.2020 09:46 9,5 C 10,0 C 9,5 C 99 % 1025,6 hPa 0,0 l/m 0 min 0 min 100 W/m 12,9 km/h (3 Bft) 97,87 %
10.11.2020 09:48 9,5 C 10,0 C 9,5 C 99 % 1025,7 hPa 0,0 l/m 0 min 0 min 77 W/m 0,0 km/h (0 Bft) 100,00 %
10.11.2020 09:50 9,5 C 10,0 C 9,5 C 99 % 1025,6 hPa 0,0 l/m 0 min 0 min 74 W/m 3,2 km/h (1 Bft) 100,00 %
10.11.2020 09:52 9,6 C 10,0 C 9,5 C 99 % 1025,6 hPa 0,0 l/m 0 min 0 min 116 W/m 6,4 km/h (2 Bft) 100,00 %
10.11.2020 09:54 9,6 C 10,6 C 9,5 C 99 % 1025,6 hPa 0,0 l/m 2 min 0 min 198 W/m 19,3 km/h (3 Bft) 100,00 %
10.11.2020 09:57 9,6 C 10,6 C 9,5 C 98 % 1025,6 hPa 0,0 l/m 3 min 0 min 212 W/m 6,4 km/h (2 Bft) 96,92 %
10.11.2020 09:58 9,6 C 10,6 C 9,5 C 98 % 1025,7 hPa 0,0 l/m 1 min 0 min 215 W/m 3,2 km/h (1 Bft) 100,00 %
10.11.2020 10:02 9,7 C 11,1 C 9,5 C 98 % 1025,7 hPa 0,0 l/m 4 min 0 min 221 W/m 0,0 km/h (0 Bft) 97,50 %
10.11.2020 10:04 9,8 C 12,2 C 9,5 C 98 % 1025,7 hPa 0,0 l/m 2 min 0 min 225 W/m 12,9 km/h (3 Bft) 93,75 %
10.11.2020 10:06 9,8 C 12,8 C 9,5 C 98 % 1025,6 hPa 0,0 l/m 2 min 0 min 228 W/m 3,2 km/h (1 Bft) 95,74 %
10.11.2020 10:08 9,8 C 12,8 C 9,5 C 98 % 1025,6 hPa 0,0 l/m 2 min 0 min 233 W/m 3,2 km/h (1 Bft) 97,87 %
10.11.2020 10:10 9,9 C 12,8 C 9,5 C 99 % 1025,7 hPa 0,0 l/m 2 min 0 min 236 W/m 3,2 km/h (1 Bft) 95,65 %
10.11.2020 10:12 9,9 C 12,2 C 9,5 C 98 % 1025,6 hPa 0,0 l/m 2 min 0 min 237 W/m 16,1 km/h (3 Bft) 97,87 %
10.11.2020 10:14 10,0 C 11,7 C 9,5 C 98 % 1025,7 hPa 0,0 l/m 2 min 0 min 239 W/m 12,9 km/h (3 Bft) 97,87 %
10.11.2020 10:16 10,0 C 11,7 C 9,5 C 98 % 1025,7 hPa 0,0 l/m 2 min 0 min 232 W/m 16,1 km/h (3 Bft) 95,74 %
10.11.2020 10:18 10,0 C 12,8 C 9,5 C 98 % 1025,7 hPa 0,0 l/m 2 min 0 min 233 W/m 12,9 km/h (3 Bft) 95,74 %
10.11.2020 10:20 10,1 C 12,8 C 10,0 C 98 % 1025,7 hPa 0,0 l/m 2 min 0 min 208 W/m 0,0 km/h (0 Bft) 97,87 %
10.11.2020 10:22 10,1 C 12,2 C 10,0 C 98 % 1025,7 hPa 0,0 l/m 2 min 0 min 179 W/m 0,0 km/h (0 Bft) 97,83 %
10.11.2020 10:24 10,1 C 12,2 C 10,0 C 98 % 1025,7 hPa 0,0 l/m 2 min 0 min 171 W/m 3,2 km/h (1 Bft) 93,62 %
10.11.2020 10:26 10,2 C 11,7 C 10,0 C 98 % 1025,7 hPa 0,0 l/m 2 min 0 min 242 W/m 3,2 km/h (1 Bft) 95,74 %
10.11.2020 10:28 10,3 C 12,2 C 10,0 C 98 % 1025,7 hPa 0,0 l/m 2 min 0 min 227 W/m 0,0 km/h (0 Bft) 95,74 %
10.11.2020 10:30 10,3 C 12,2 C 10,0 C 98 % 1025,7 hPa 0,0 l/m 2 min 0 min 176 W/m 3,2 km/h (1 Bft) 95,74 %
10.11.2020 10:32 10,4 C 12,2 C 10,0 C 98 % 1025,7 hPa 0,0 l/m 2 min 0 min 154 W/m 3,2 km/h (1 Bft) 95,74 %
10.11.2020 10:34 10,4 C 12,2 C 10,0 C 98 % 1025,7 hPa 0,0 l/m 2 min 0 min 187 W/m 3,2 km/h (1 Bft) 93,48 %
10.11.2020 10:36 10,4 C 12,2 C 10,0 C 98 % 1025,7 hPa 0,0 l/m 2 min 0 min 223 W/m 12,9 km/h (3 Bft) 95,74 %
10.11.2020 10:38 10,5 C 11,7 C 10,0 C 98 % 1025,7 hPa 0,0 l/m 2 min 0 min 227 W/m 3,2 km/h (1 Bft) 93,62 %
10.11.2020 10:40 10,5 C 12,2 C 10,0 C 98 % 1025,8 hPa 0,0 l/m 2 min 0 min 232 W/m 0,0 km/h (0 Bft) 93,62 %
10.11.2020 10:42 10,5 C 12,2 C 10,0 C 98 % 1025,8 hPa 0,0 l/m 2 min 0 min 175 W/m 6,4 km/h (2 Bft) 91,49 %
10.11.2020 10:44 10,6 C 12,8 C 10,0 C 98 % 1025,8 hPa 0,0 l/m 0 min 0 min 114 W/m 12,9 km/h (3 Bft) 93,62 %
10.11.2020 10:46 10,6 C 12,2 C 10,6 C 98 % 1025,8 hPa 0,0 l/m 0 min 0 min 139 W/m 16,1 km/h (3 Bft) 95,65 %
10.11.2020 10:48 10,7 C 12,2 C 10,6 C 98 % 1025,8 hPa 0,0 l/m 2 min 0 min 243 W/m 0,0 km/h (0 Bft) 95,74 %
10.11.2020 10:50 10,8 C 12,2 C 10,6 C 98 % 1025,7 hPa 0,0 l/m 2 min 0 min 251 W/m 3,2 km/h (1 Bft) 93,62 %
10.11.2020 10:52 10,8 C 12,2 C 10,6 C 98 % 1025,8 hPa 0,0 l/m 2 min 0 min 199 W/m 3,2 km/h (1 Bft) 95,74 %
10.11.2020 10:54 10,9 C 12,8 C 10,6 C 98 % 1025,7 hPa 0,0 l/m 2 min 0 min 258 W/m 0,0 km/h (0 Bft) 95,24 %
10.11.2020 10:56 10,9 C 12,8 C 10,6 C 98 % 1025,8 hPa 0,0 l/m 2 min 0 min 280 W/m 6,4 km/h (2 Bft) 95,74 %
10.11.2020 10:58 11,0 C 13,3 C 10,6 C 97 % 1025,8 hPa 0,0 l/m 2 min 0 min 306 W/m 12,9 km/h (3 Bft) 95,65 %
10.11.2020 11:00 11,0 C 13,3 C 10,6 C 97 % 1025,8 hPa 0,0 l/m 2 min 0 min 284 W/m 6,4 km/h (2 Bft) 93,75 %
10.11.2020 11:02 11,1 C 13,9 C 10,6 C 98 % 1025,8 hPa 0,0 l/m 2 min 0 min 184 W/m 3,2 km/h (1 Bft) 95,74 %
10.11.2020 11:04 11,2 C 13,9 C 10,6 C 97 % 1025,8 hPa 0,0 l/m 2 min 0 min 225 W/m 6,4 km/h (2 Bft) 95,83 %
10.11.2020 11:06 11,3 C 15,6 C 11,1 C 97 % 1025,8 hPa 0,0 l/m 2 min 0 min 235 W/m 6,4 km/h (2 Bft) 97,87 %
10.11.2020 11:08 11,3 C 16,7 C 11,1 C 97 % 1025,8 hPa 0,0 l/m 2 min 0 min 303 W/m 12,9 km/h (3 Bft) 97,87 %
10.11.2020 11:10 11,4 C 17,2 C 11,1 C 97 % 1025,8 hPa 0,0 l/m 2 min 0 min 317 W/m 12,9 km/h (3 Bft) 97,83 %
10.11.2020 11:12 11,4 C 17,8 C 11,1 C 97 % 1025,8 hPa 0,0 l/m 2 min 0 min 319 W/m 12,9 km/h (3 Bft) 97,87 %
10.11.2020 11:14 11,5 C 17,8 C 11,1 C 97 % 1025,8 hPa 0,0 l/m 2 min 0 min 320 W/m 6,4 km/h (2 Bft) 95,74 %
10.11.2020 11:16 11,6 C 18,3 C 11,1 C 97 % 1025,9 hPa 0,0 l/m 2 min 0 min 321 W/m 6,4 km/h (2 Bft) 97,87 %
10.11.2020 11:18 11,6 C 18,3 C 11,7 C 97 % 1025,9 hPa 0,0 l/m 2 min 0 min 323 W/m 12,9 km/h (3 Bft) 97,87 %
10.11.2020 11:20 11,8 C 18,3 C 11,1 C 97 % 1025,9 hPa 0,0 l/m 2 min 0 min 326 W/m 6,4 km/h (2 Bft) 97,83 %
10.11.2020 11:22 11,8 C 18,9 C 11,1 C 97 % 1025,8 hPa 0,0 l/m 2 min 0 min 329 W/m 6,4 km/h (2 Bft) 97,87 %
10.11.2020 11:24 11,9 C 18,9 C 11,7 C 96 % 1025,8 hPa 0,0 l/m 2 min 0 min 330 W/m 12,9 km/h (3 Bft) 95,74 %
10.11.2020 11:26 12,0 C 18,9 C 11,7 C 97 % 1025,9 hPa 0,0 l/m 2 min 0 min 332 W/m 6,4 km/h (2 Bft) 95,74 %
10.11.2020 11:28 12,1 C 18,9 C 11,7 C 96 % 1025,9 hPa 0,0 l/m 2 min 0 min 335 W/m 12,9 km/h (3 Bft) 97,87 %
10.11.2020 11:30 12,2 C 19,4 C 11,7 C 96 % 1025,9 hPa 0,0 l/m 2 min 0 min 338 W/m 6,4 km/h (2 Bft) 97,87 %
10.11.2020 11:32 12,3 C 18,9 C 11,7 C 96 % 1025,9 hPa 0,0 l/m 2 min 0 min 341 W/m 6,4 km/h (2 Bft) 97,87 %
10.11.2020 11:34 12,4 C 18,9 C 11,7 C 96 % 1025,9 hPa 0,0 l/m 2 min 0 min 341 W/m 12,9 km/h (3 Bft) 97,56 %
10.11.2020 11:36 12,5 C 18,9 C 11,7 C 96 % 1025,9 hPa 0,0 l/m 2 min 0 min 343 W/m 12,9 km/h (3 Bft) 97,87 %
10.11.2020 11:38 12,6 C 18,9 C 11,7 C 96 % 1025,8 hPa 0,0 l/m 2 min 0 min 344 W/m 12,9 km/h (3 Bft) 95,74 %
10.11.2020 11:40 12,7 C 18,9 C 11,7 C 95 % 1025,8 hPa 0,0 l/m 2 min 0 min 347 W/m 16,1 km/h (3 Bft) 97,87 %
10.11.2020 11:42 12,8 C 18,9 C 11,7 C 95 % 1025,7 hPa 0,0 l/m 2 min 0 min 347 W/m 12,9 km/h (3 Bft) 97,87 %
10.11.2020 11:44 12,9 C 18,9 C 12,2 C 94 % 1025,7 hPa 0,0 l/m 2 min 0 min 353 W/m 12,9 km/h (3 Bft) 97,87 %
10.11.2020 11:46 13,0 C 19,4 C 12,2 C 94 % 1025,7 hPa 0,0 l/m 2 min 0 min 355 W/m 12,9 km/h (3 Bft) 97,87 %
10.11.2020 11:48 13,1 C 19,4 C 12,2 C 94 % 1025,7 hPa 0,0 l/m 2 min 0 min 357 W/m 12,9 km/h (3 Bft) 97,87 %
10.11.2020 11:50 13,2 C 19,4 C 12,2 C 93 % 1025,7 hPa 0,0 l/m 2 min 0 min 367 W/m 12,9 km/h (3 Bft) 93,62 %
10.11.2020 11:52 13,3 C 20,0 C 12,2 C 93 % 1025,7 hPa 0,0 l/m 2 min 0 min 365 W/m 6,4 km/h (2 Bft) 97,87 %
10.11.2020 11:54 13,4 C 20,0 C 12,2 C 93 % 1025,8 hPa 0,0 l/m 2 min 0 min 337 W/m 12,9 km/h (3 Bft) 97,92 %
10.11.2020 11:56 13,5 C 19,4 C 12,2 C 92 % 1025,8 hPa 0,0 l/m 2 min 0 min 346 W/m 19,3 km/h (3 Bft) 97,83 %
10.11.2020 11:58 13,6 C 19,4 C 12,2 C 92 % 1025,7 hPa 0,0 l/m 2 min 0 min 349 W/m 12,9 km/h (3 Bft) 97,87 %
10.11.2020 12:00 13,7 C 18,9 C 12,2 C 91 % 1025,6 hPa 0,0 l/m 2 min 0 min 356 W/m 12,9 km/h (3 Bft) 95,83 %
10.11.2020 12:02 13,8 C 20,0 C 12,2 C 91 % 1025,7 hPa 0,0 l/m 2 min 0 min 363 W/m 6,4 km/h (2 Bft) 95,74 %
10.11.2020 12:04 13,9 C 20,0 C 12,2 C 91 % 1025,7 hPa 0,0 l/m 2 min 0 min 365 W/m 16,1 km/h (3 Bft) 95,92 %
10.11.2020 12:08 14,1 C 20,0 C 12,8 C 90 % 1025,6 hPa 0,0 l/m 4 min 0 min 363 W/m 12,9 km/h (3 Bft) 95,70 %
10.11.2020 12:10 14,2 C 20,0 C 12,8 C 89 % 1025,6 hPa 0,0 l/m 2 min 0 min 361 W/m 12,9 km/h (3 Bft) 93,62 %
10.11.2020 12:12 14,2 C 19,4 C 12,8 C 89 % 1025,7 hPa 0,0 l/m 2 min 0 min 359 W/m 16,1 km/h (3 Bft) 93,62 %
10.11.2020 12:14 14,3 C 19,4 C 12,8 C 89 % 1025,6 hPa 0,0 l/m 2 min 0 min 359 W/m 12,9 km/h (3 Bft) 93,62 %
10.11.2020 12:16 14,4 C 19,4 C 12,8 C 89 % 1025,6 hPa 0,0 l/m 2 min 0 min 359 W/m 19,3 km/h (3 Bft) 93,62 %
10.11.2020 12:18 14,5 C 20,0 C 12,8 C 88 % 1025,6 hPa 0,0 l/m 2 min 0 min 360 W/m 12,9 km/h (3 Bft) 93,48 %
10.11.2020 12:20 14,6 C 20,0 C 12,8 C 88 % 1025,5 hPa 0,0 l/m 2 min 0 min 359 W/m 12,9 km/h (3 Bft) 93,62 %
10.11.2020 12:22 14,7 C 20,6 C 12,8 C 88 % 1025,6 hPa 0,0 l/m 2 min 0 min 359 W/m 12,9 km/h (3 Bft) 91,49 %
10.11.2020 12:24 14,8 C 20,6 C 12,8 C 88 % 1025,5 hPa 0,0 l/m 2 min 0 min 359 W/m 6,4 km/h (2 Bft) 93,62 %
10.11.2020 12:26 14,9 C 20,6 C 13,4 C 87 % 1025,5 hPa 0,0 l/m 2 min 0 min 359 W/m 12,9 km/h (3 Bft) 89,36 %
10.11.2020 12:28 14,9 C 20,6 C 13,4 C 87 % 1025,5 hPa 0,0 l/m 2 min 0 min 360 W/m 6,4 km/h (2 Bft) 91,49 %
10.11.2020 12:30 15,0 C 20,6 C 13,4 C 87 % 1025,5 hPa 0,0 l/m 2 min 0 min 359 W/m 16,1 km/h (3 Bft) 93,62 %
10.11.2020 12:32 15,1 C 20,6 C 13,4 C 87 % 1025,4 hPa 0,0 l/m 2 min 0 min 357 W/m 12,9 km/h (3 Bft) 93,48 %
10.11.2020 12:34 15,1 C 20,0 C 13,4 C 86 % 1025,5 hPa 0,0 l/m 2 min 0 min 359 W/m 12,9 km/h (3 Bft) 93,62 %
10.11.2020 12:36 15,2 C 20,6 C 13,4 C 86 % 1025,5 hPa 0,0 l/m 2 min 0 min 353 W/m 12,9 km/h (3 Bft) 91,49 %
10.11.2020 12:38 15,3 C 20,0 C 13,4 C 86 % 1025,5 hPa 0,0 l/m 2 min 0 min 343 W/m 16,1 km/h (3 Bft) 95,24 %
10.11.2020 12:40 15,4 C 20,0 C 13,4 C 86 % 1025,5 hPa 0,0 l/m 2 min 0 min 317 W/m 6,4 km/h (2 Bft) 97,87 %
10.11.2020 12:42 15,4 C 20,0 C 13,4 C 86 % 1025,5 hPa 0,0 l/m 2 min 0 min 349 W/m 12,9 km/h (3 Bft) 95,74 %
10.11.2020 12:44 15,5 C 20,6 C 13,4 C 85 % 1025,4 hPa 0,0 l/m 2 min 0 min 365 W/m 16,1 km/h (3 Bft) 95,74 %
10.11.2020 12:46 15,5 C 20,6 C 13,4 C 85 % 1025,4 hPa 0,0 l/m 2 min 0 min 355 W/m 12,9 km/h (3 Bft) 97,87 %
10.11.2020 12:48 15,6 C 20,6 C 13,4 C 85 % 1025,5 hPa 0,0 l/m 2 min 0 min 368 W/m 16,1 km/h (3 Bft) 97,87 %
10.11.2020 12:50 15,6 C 20,0 C 13,4 C 85 % 1025,4 hPa 0,0 l/m 2 min 0 min 370 W/m 12,9 km/h (3 Bft) 97,87 %
10.11.2020 12:52 15,6 C 20,6 C 13,4 C 85 % 1025,4 hPa 0,0 l/m 2 min 0 min 340 W/m 12,9 km/h (3 Bft) 95,74 %
10.11.2020 12:54 15,7 C 20,6 C 13,4 C 84 % 1025,4 hPa 0,0 l/m 2 min 0 min 366 W/m 12,9 km/h (3 Bft) 100,00 %
10.11.2020 12:56 15,7 C 20,0 C 13,4 C 84 % 1025,3 hPa 0,0 l/m 2 min 0 min 358 W/m 12,9 km/h (3 Bft) 100,00 %
10.11.2020 12:58 15,8 C 18,9 C 13,4 C 84 % 1025,4 hPa 0,0 l/m 2 min 0 min 203 W/m 16,1 km/h (3 Bft) 100,00 %
10.11.2020 13:00 15,8 C 18,9 C 13,4 C 84 % 1025,4 hPa 0,0 l/m 2 min 0 min 233 W/m 12,9 km/h (3 Bft) 100,00 %
10.11.2020 13:02 15,8 C 18,9 C 13,9 C 84 % 1025,3 hPa 0,0 l/m 2 min 0 min 326 W/m 12,9 km/h (3 Bft) 97,87 %
10.11.2020 13:04 15,9 C 20,6 C 13,9 C 84 % 1025,3 hPa 0,0 l/m 2 min 0 min 403 W/m 6,4 km/h (2 Bft) 100,00 %
10.11.2020 13:06 15,9 C 20,0 C 13,9 C 84 % 1025,3 hPa 0,0 l/m 2 min 0 min 295 W/m 6,4 km/h (2 Bft) 100,00 %
10.11.2020 13:08 15,9 C 19,4 C 14,5 C 84 % 1025,3 hPa 0,0 l/m 2 min 0 min 272 W/m 6,4 km/h (2 Bft) 100,00 %
10.11.2020 13:10 15,9 C 18,3 C 14,5 C 84 % 1025,3 hPa 0,0 l/m 2 min 0 min 240 W/m 12,9 km/h (3 Bft) 100,00 %
10.11.2020 13:12 16,0 C 18,9 C 14,5 C 84 % 1025,3 hPa 0,0 l/m 2 min 0 min 254 W/m 6,4 km/h (2 Bft) 100,00 %
10.11.2020 13:14 16,0 C 20,0 C 14,5 C 84 % 1025,3 hPa 0,0 l/m 2 min 0 min 354 W/m 12,9 km/h (3 Bft) 100,00 %
10.11.2020 13:16 16,0 C 20,0 C 14,5 C 84 % 1025,3 hPa 0,0 l/m 2 min 0 min 318 W/m 6,4 km/h (2 Bft) 100,00 %
10.11.2020 13:18 16,0 C 18,9 C 14,5 C 84 % 1025,3 hPa 0,0 l/m 2 min 0 min 233 W/m 6,4 km/h (2 Bft) 100,00 %
10.11.2020 13:20 16,1 C 18,3 C 14,5 C 83 % 1025,3 hPa 0,0 l/m 2 min 0 min 198 W/m 6,4 km/h (2 Bft) 100,00 %
10.11.2020 13:22 16,1 C 17,8 C 14,5 C 83 % 1025,3 hPa 0,0 l/m 0 min 0 min 160 W/m 6,4 km/h (2 Bft) 100,00 %
10.11.2020 13:24 16,1 C 17,2 C 13,9 C 83 % 1025,3 hPa 0,0 l/m 0 min 0 min 152 W/m 6,4 km/h (2 Bft) 100,00 %
10.11.2020 13:26 16,1 C 16,7 C 13,9 C 83 % 1025,3 hPa 0,0 l/m 0 min 0 min 168 W/m 12,9 km/h (3 Bft) 100,00 %
10.11.2020 13:28 16,1 C 17,2 C 14,5 C 83 % 1025,3 hPa 0,0 l/m 2 min 0 min 220 W/m 12,9 km/h (3 Bft) 100,00 %
10.11.2020 13:30 16,1 C 17,8 C 14,5 C 83 % 1025,2 hPa 0,0 l/m 2 min 0 min 246 W/m 12,9 km/h (3 Bft) 100,00 %
10.11.2020 13:32 16,0 C 18,3 C 14,5 C 84 % 1025,2 hPa 0,0 l/m 2 min 0 min 313 W/m 6,4 km/h (2 Bft) 100,00 %
10.11.2020 13:34 16,1 C 20,0 C 14,5 C 83 % 1025,2 hPa 0,0 l/m 2 min 0 min 420 W/m 12,9 km/h (3 Bft) 100,00 %
10.11.2020 13:36 16,1 C 20,6 C 15,0 C 84 % 1025,2 hPa 0,0 l/m 2 min 0 min 438 W/m 16,1 km/h (3 Bft) 100,00 %
10.11.2020 13:38 16,1 C 21,1 C 15,0 C 84 % 1025,2 hPa 0,0 l/m 2 min 0 min 427 W/m 6,4 km/h (2 Bft) 100,00 %
10.11.2020 13:40 16,2 C 21,7 C 15,0 C 84 % 1025,2 hPa 0,0 l/m 2 min 0 min 418 W/m 12,9 km/h (3 Bft) 100,00 %
10.11.2020 13:42 16,3 C 21,1 C 15,0 C 83 % 1025,1 hPa 0,0 l/m 2 min 0 min 411 W/m 6,4 km/h (2 Bft) 100,00 %
10.11.2020 13:44 16,3 C 21,1 C 15,0 C 84 % 1025,1 hPa 0,0 l/m 2 min 0 min 405 W/m 6,4 km/h (2 Bft) 100,00 %
10.11.2020 13:46 16,4 C 22,2 C 15,0 C 84 % 1025,1 hPa 0,0 l/m 2 min 0 min 395 W/m 12,9 km/h (3 Bft) 100,00 %
10.11.2020 13:48 16,4 C 21,1 C 15,0 C 84 % 1025,1 hPa 0,0 l/m 2 min 0 min 384 W/m 6,4 km/h (2 Bft) 100,00 %
10.11.2020 13:50 16,5 C 21,1 C 15,0 C 83 % 1025,1 hPa 0,0 l/m 2 min 0 min 372 W/m 12,9 km/h (3 Bft) 100,00 %
10.11.2020 13:52 16,5 C 20,6 C 15,0 C 83 % 1025,0 hPa 0,0 l/m 2 min 0 min 358 W/m 12,9 km/h (3 Bft) 97,83 %
10.11.2020 13:54 16,6 C 20,6 C 15,0 C 83 % 1025,1 hPa 0,0 l/m 2 min 0 min 347 W/m 6,4 km/h (2 Bft) 100,00 %
10.11.2020 13:56 16,6 C 20,6 C 15,0 C 83 % 1025,0 hPa 0,0 l/m 2 min 0 min 332 W/m 6,4 km/h (2 Bft) 100,00 %
10.11.2020 13:58 16,7 C 20,0 C 15,0 C 83 % 1025,0 hPa 0,0 l/m 2 min 0 min 320 W/m 3,2 km/h (1 Bft) 97,87 %
10.11.2020 14:00 16,7 C 20,0 C 14,5 C 83 % 1025,0 hPa 0,0 l/m 2 min 0 min 314 W/m 12,9 km/h (3 Bft) 100,00 %
10.11.2020 14:02 16,8 C 20,6 C 14,5 C 83 % 1025,1 hPa 0,0 l/m 2 min 0 min 306 W/m 6,4 km/h (2 Bft) 100,00 %
10.11.2020 14:04 16,8 C 21,1 C 14,5 C 83 % 1025,0 hPa 0,0 l/m 2 min 0 min 302 W/m 6,4 km/h (2 Bft) 100,00 %
10.11.2020 14:06 16,9 C 21,1 C 14,5 C 83 % 1025,0 hPa 0,2 l/m 2 min 0 min 297 W/m 12,9 km/h (3 Bft) 100,00 %
10.11.2020 14:08 16,9 C 21,7 C 16,7 C 83 % 1025,0 hPa 0,0 l/m 2 min 0 min 307 W/m 3,2 km/h (1 Bft) 100,00 %
10.11.2020 14:10 17,0 C 21,1 C 18,4 C 82 % 1025,0 hPa 0,0 l/m 2 min 0 min 321 W/m 0,0 km/h (0 Bft) 97,22 %
10.11.2020 14:12 17,0 C 20,6 C 20,0 C 82 % 1025,0 hPa 0,0 l/m 2 min 0 min 319 W/m 12,9 km/h (3 Bft) 98,31 %
10.11.2020 14:14 17,0 C 20,6 C 21,1 C 82 % 1025,0 hPa 0,0 l/m 2 min 0 min 312 W/m 6,4 km/h (2 Bft) 95,74 %
10.11.2020 14:16 17,1 C 21,1 C 21,1 C 82 % 1025,0 hPa 0,0 l/m 2 min 0 min 308 W/m 0,0 km/h (0 Bft) 94,59 %
10.11.2020 14:18 17,1 C 21,1 C 21,1 C 82 % 1025,0 hPa 0,0 l/m 2 min 0 min 306 W/m 0,0 km/h (0 Bft) 95,74 %
10.11.2020 14:20 17,1 C 20,0 C 18,9 C 81 % 1025,1 hPa 0,0 l/m 2 min 0 min 304 W/m 12,9 km/h (3 Bft) 95,74 %
10.11.2020 14:22 17,1 C 20,0 C 17,8 C 81 % 1025,0 hPa 0,0 l/m 2 min 0 min 302 W/m 12,9 km/h (3 Bft) 93,62 %
10.11.2020 14:24 17,1 C 20,6 C 17,2 C 81 % 1025,0 hPa 0,0 l/m 2 min 0 min 300 W/m 3,2 km/h (1 Bft) 95,83 %
10.11.2020 14:26 17,1 C 21,1 C 17,2 C 81 % 1025,1 hPa 0,0 l/m 2 min 0 min 296 W/m 0,0 km/h (0 Bft) 95,74 %
10.11.2020 14:28 17,2 C 20,6 C 16,7 C 82 % 1025,1 hPa 0,0 l/m 2 min 0 min 294 W/m 12,9 km/h (3 Bft) 95,65 %
10.11.2020 14:30 17,2 C 20,6 C 18,4 C 81 % 1025,1 hPa 0,0 l/m 2 min 0 min 290 W/m 12,9 km/h (3 Bft) 93,75 %
10.11.2020 14:32 17,3 C 20,6 C 19,5 C 81 % 1025,0 hPa 0,0 l/m 2 min 0 min 283 W/m 3,2 km/h (1 Bft) 95,74 %
10.11.2020 14:34 17,3 C 21,1 C 20,0 C 81 % 1025,0 hPa 0,0 l/m 2 min 0 min 278 W/m 0,0 km/h (0 Bft) 95,83 %
10.11.2020 14:36 17,4 C 21,7 C 20,0 C 82 % 1025,0 hPa 0,0 l/m 2 min 0 min 276 W/m 3,2 km/h (1 Bft) 91,67 %
10.11.2020 14:38 17,4 C 20,6 C 20,6 C 81 % 1025,1 hPa 0,0 l/m 2 min 0 min 273 W/m 12,9 km/h (3 Bft) 95,65 %
10.11.2020 14:40 17,4 C 20,6 C 20,6 C 81 % 1025,1 hPa 0,0 l/m 2 min 0 min 270 W/m 12,9 km/h (3 Bft) 95,74 %
10.11.2020 14:42 17,4 C 20,0 C 20,0 C 81 % 1025,0 hPa 0,0 l/m 2 min 0 min 267 W/m 12,9 km/h (3 Bft) 95,74 %
10.11.2020 14:44 17,4 C 20,6 C 20,0 C 81 % 1025,0 hPa 0,0 l/m 2 min 0 min 264 W/m 0,0 km/h (0 Bft) 95,83 %
10.11.2020 14:46 17,4 C 20,0 C 19,5 C 81 % 1025,0 hPa 0,0 l/m 2 min 0 min 251 W/m 0,0 km/h (0 Bft) 93,75 %
10.11.2020 14:48 17,4 C 20,0 C 20,0 C 81 % 1025,0 hPa 0,0 l/m 2 min 0 min 251 W/m 12,9 km/h (3 Bft) 95,83 %
10.11.2020 14:50 17,5 C 20,0 C 19,5 C 81 % 1025,1 hPa 0,0 l/m 2 min 0 min 247 W/m 6,4 km/h (2 Bft) 97,87 %
10.11.2020 14:52 17,5 C 19,4 C 18,4 C 81 % 1025,0 hPa 0,0 l/m 2 min 0 min 237 W/m 9,7 km/h (2 Bft) 97,22 %
10.11.2020 14:54 17,5 C 18,9 C 17,8 C 81 % 1025,1 hPa 0,0 l/m 2 min 0 min 230 W/m 12,9 km/h (3 Bft) 96,61 %
10.11.2020 14:56 17,5 C 18,9 C 17,2 C 81 % 1025,1 hPa 0,0 l/m 2 min 0 min 224 W/m 12,9 km/h (3 Bft) 97,22 %
10.11.2020 14:58 17,5 C 18,9 C 16,7 C 80 % 1025,1 hPa 0,0 l/m 2 min 0 min 208 W/m 16,1 km/h (3 Bft) 96,61 %
10.11.2020 15:00 17,5 C 18,9 C 16,7 C 80 % 1025,1 hPa 0,0 l/m 2 min 0 min 187 W/m 19,3 km/h (3 Bft) 100,00 %
10.11.2020 15:02 17,4 C 18,3 C 16,1 C 80 % 1025,1 hPa 0,0 l/m 2 min 0 min 194 W/m 16,1 km/h (3 Bft) 100,00 %
10.11.2020 15:04 17,4 C 18,3 C 16,1 C 80 % 1025,1 hPa 0,0 l/m 2 min 0 min 200 W/m 12,9 km/h (3 Bft) 100,00 %
10.11.2020 15:06 17,4 C 18,3 C 16,7 C 80 % 1025,1 hPa 0,0 l/m 2 min 0 min 194 W/m 12,9 km/h (3 Bft) 100,00 %
10.11.2020 15:08 17,4 C 18,9 C 14,5 C 80 % 1025,1 hPa 0,0 l/m 2 min 0 min 188 W/m 12,9 km/h (3 Bft) 97,87 %
10.11.2020 15:10 17,4 C 18,3 C 13,9 C 81 % 1025,1 hPa 0,0 l/m 2 min 0 min 185 W/m 6,4 km/h (2 Bft) 100,00 %
10.11.2020 15:12 17,4 C 18,9 C 13,9 C 80 % 1025,1 hPa 0,0 l/m 2 min 0 min 181 W/m 6,4 km/h (2 Bft) 100,00 %
10.11.2020 15:14 17,3 C 18,9 C 13,9 C 81 % 1025,1 hPa 0,0 l/m 2 min 0 min 178 W/m 3,2 km/h (1 Bft) 95,24 %
10.11.2020 15:16 17,3 C 19,4 C 13,4 C 81 % 1025,1 hPa 0,0 l/m 2 min 0 min 174 W/m 0,0 km/h (0 Bft) 100,00 %
10.11.2020 15:18 17,3 C 19,4 C 13,4 C 81 % 1025,1 hPa 0,0 l/m 2 min 0 min 170 W/m 6,4 km/h (2 Bft) 100,00 %
10.11.2020 15:20 17,3 C 19,4 C 12,8 C 81 % 1025,1 hPa 0,0 l/m 2 min 0 min 165 W/m 3,2 km/h (1 Bft) 97,87 %
10.11.2020 15:22 17,3 C 19,4 C 12,8 C 81 % 1025,1 hPa 0,0 l/m 2 min 0 min 160 W/m 0,0 km/h (0 Bft) 97,87 %
10.11.2020 15:24 17,3 C 19,4 C 12,8 C 81 % 1025,0 hPa 0,0 l/m 2 min 0 min 156 W/m 0,0 km/h (0 Bft) 100,00 %
10.11.2020 15:26 17,3 C 19,4 C 12,8 C 81 % 1025,0 hPa 0,0 l/m 2 min 0 min 151 W/m 0,0 km/h (0 Bft) 100,00 %
10.11.2020 15:28 17,3 C 19,4 C 12,8 C 81 % 1025,0 hPa 0,0 l/m 2 min 0 min 147 W/m 0,0 km/h (0 Bft) 100,00 %
10.11.2020 15:30 17,3 C 19,4 C 12,8 C 82 % 1025,0 hPa 0,0 l/m 2 min 0 min 142 W/m 0,0 km/h (0 Bft) 100,00 %
10.11.2020 15:32 17,3 C 19,4 C 13,4 C 82 % 1025,0 hPa 0,0 l/m 2 min 0 min 136 W/m 0,0 km/h (0 Bft) 95,74 %
10.11.2020 15:34 17,3 C 19,4 C 13,4 C 82 % 1025,1 hPa 0,0 l/m 2 min 0 min 130 W/m 0,0 km/h (0 Bft) 97,92 %
10.11.2020 15:36 17,3 C 19,4 C 13,4 C 81 % 1025,1 hPa 0,0 l/m 2 min 0 min 125 W/m 0,0 km/h (0 Bft) 97,87 %
10.11.2020 15:38 17,3 C 19,4 C 13,4 C 81 % 1025,1 hPa 0,0 l/m 2 min 0 min 118 W/m 0,0 km/h (0 Bft) 97,83 %
10.11.2020 15:40 17,3 C 19,4 C 12,8 C 82 % 1025,1 hPa 0,0 l/m 2 min 0 min 113 W/m 0,0 km/h (0 Bft) 97,87 %
10.11.2020 15:42 17,3 C 19,4 C 12,8 C 82 % 1025,1 hPa 0,0 l/m 2 min 0 min 107 W/m 0,0 km/h (0 Bft) 97,87 %
10.11.2020 15:44 17,3 C 18,9 C 12,2 C 82 % 1025,2 hPa 0,0 l/m 2 min 0 min 102 W/m 0,0 km/h (0 Bft) 97,92 %
10.11.2020 15:46 17,3 C 18,9 C 12,8 C 81 % 1025,1 hPa 0,0 l/m 2 min 0 min 96 W/m 0,0 km/h (0 Bft) 97,87 %
10.11.2020 15:48 17,3 C 18,9 C 12,2 C 81 % 1025,2 hPa 0,0 l/m 2 min 0 min 91 W/m 0,0 km/h (0 Bft) 95,74 %
10.11.2020 15:50 17,3 C 18,9 C 12,2 C 82 % 1025,2 hPa 0,0 l/m 2 min 0 min 86 W/m 0,0 km/h (0 Bft) 97,83 %
10.11.2020 15:52 17,3 C 18,3 C 12,2 C 82 % 1025,2 hPa 0,0 l/m 2 min 0 min 82 W/m 0,0 km/h (0 Bft) 97,87 %
10.11.2020 15:54 17,3 C 18,3 C 12,2 C 82 % 1025,2 hPa 0,0 l/m 2 min 0 min 76 W/m 0,0 km/h (0 Bft) 97,92 %
10.11.2020 15:56 17,3 C 18,3 C 12,2 C 81 % 1025,2 hPa 0,0 l/m 2 min 0 min 72 W/m 0,0 km/h (0 Bft) 97,92 %
10.11.2020 15:58 17,3 C 18,3 C 12,2 C 81 % 1025,2 hPa 0,0 l/m 2 min 0 min 66 W/m 0,0 km/h (0 Bft) 97,87 %
10.11.2020 16:00 17,3 C 17,8 C 12,2 C 81 % 1025,2 hPa 0,0 l/m 0 min 0 min 52 W/m 0,0 km/h (0 Bft) 95,83 %
10.11.2020 16:02 17,3 C 16,7 C 11,7 C 81 % 1025,2 hPa 0,0 l/m 0 min 0 min 35 W/m 0,0 km/h (0 Bft) 95,24 %
10.11.2020 16:04 17,3 C 16,7 C 11,7 C 81 % 1025,2 hPa 0,0 l/m 0 min 0 min 34 W/m 0,0 km/h (0 Bft) 96,30 %
10.11.2020 16:06 17,3 C 16,1 C 11,7 C 81 % 1025,2 hPa 0,0 l/m 0 min 0 min 32 W/m 0,0 km/h (0 Bft) 97,92 %
10.11.2020 16:08 17,2 C 15,6 C 11,7 C 81 % 1025,2 hPa 0,0 l/m 0 min 0 min 31 W/m 0,0 km/h (0 Bft) 97,87 %
10.11.2020 16:10 17,1 C 15,6 C 11,7 C 81 % 1025,3 hPa 0,0 l/m 0 min 0 min 28 W/m 0,0 km/h (0 Bft) 97,14 %
10.11.2020 16:12 17,1 C 15,0 C 11,7 C 81 % 1025,3 hPa 0,0 l/m 0 min 0 min 25 W/m 0,0 km/h (0 Bft) 98,28 %
10.11.2020 16:14 17,1 C 15,0 C 11,7 C 81 % 1025,3 hPa 0,0 l/m 0 min 0 min 22 W/m 0,0 km/h (0 Bft) 95,83 %
10.11.2020 16:16 17,0 C 15,0 C 11,7 C 81 % 1025,3 hPa 0,0 l/m 0 min 0 min 20 W/m 0,0 km/h (0 Bft) 97,87 %
10.11.2020 16:18 16,9 C 14,4 C 11,1 C 81 % 1025,3 hPa 0,0 l/m 0 min 0 min 18 W/m 0,0 km/h (0 Bft) 97,87 %
10.11.2020 16:20 16,9 C 14,4 C 11,1 C 81 % 1025,3 hPa 0,0 l/m 0 min 0 min 18 W/m 0,0 km/h (0 Bft) 97,87 %
10.11.2020 16:22 16,8 C 14,4 C 11,1 C 81 % 1025,3 hPa 0,0 l/m 0 min 0 min 18 W/m 0,0 km/h (0 Bft) 97,83 %
10.11.2020 16:24 16,8 C 14,4 C 11,1 C 81 % 1025,3 hPa 0,0 l/m 0 min 0 min 15 W/m 0,0 km/h (0 Bft) 97,30 %
10.11.2020 16:26 16,7 C 14,4 C 11,1 C 81 % 1025,3 hPa 0,0 l/m 0 min 0 min 12 W/m 0,0 km/h (0 Bft) 96,55 %
10.11.2020 16:28 16,6 C 13,9 C 11,1 C 81 % 1025,3 hPa 0,0 l/m 0 min 0 min 12 W/m 0,0 km/h (0 Bft) 97,14 %
10.11.2020 16:30 16,5 C 13,9 C 11,1 C 81 % 1025,3 hPa 0,0 l/m 0 min 0 min 12 W/m 0,0 km/h (0 Bft) 98,31 %
10.11.2020 16:32 16,5 C 13,9 C 11,1 C 81 % 1025,3 hPa 0,0 l/m 0 min 0 min 11 W/m 0,0 km/h (0 Bft) 100,00 %
10.11.2020 16:34 16,4 C 13,9 C 11,1 C 81 % 1025,3 hPa 0,0 l/m 0 min 0 min 9 W/m 0,0 km/h (0 Bft) 98,31 %
10.11.2020 16:36 16,3 C 13,9 C 11,1 C 82 % 1025,4 hPa 0,0 l/m 0 min 0 min 9 W/m 0,0 km/h (0 Bft) 97,22 %
10.11.2020 16:38 16,3 C 13,3 C 11,1 C 82 % 1025,3 hPa 0,0 l/m 0 min 0 min 7 W/m 0,0 km/h (0 Bft) 100,00 %
10.11.2020 16:40 16,1 C 13,3 C 10,6 C 82 % 1025,3 hPa 0,0 l/m 0 min 0 min 7 W/m 0,0 km/h (0 Bft) 100,00 %
10.11.2020 16:42 16,0 C 13,3 C 10,6 C 82 % 1025,3 hPa 0,0 l/m 0 min 0 min 7 W/m 0,0 km/h (0 Bft) 100,00 %
10.11.2020 16:44 16,0 C 13,3 C 10,6 C 82 % 1025,3 hPa 0,0 l/m 0 min 0 min 5 W/m 0,0 km/h (0 Bft) 100,00 %
10.11.2020 16:46 15,9 C 13,3 C 10,6 C 82 % 1025,3 hPa 0,0 l/m 0 min 0 min 5 W/m 0,0 km/h (0 Bft) 95,83 %
10.11.2020 16:48 15,8 C 13,3 C 10,6 C 83 % 1025,3 hPa 0,0 l/m 0 min 0 min 5 W/m 0,0 km/h (0 Bft) 95,74 %
10.11.2020 16:50 15,8 C 13,3 C 10,6 C 83 % 1025,3 hPa 0,0 l/m 0 min 0 min 5 W/m 0,0 km/h (0 Bft) 95,74 %
10.11.2020 16:52 15,6 C 12,8 C 10,6 C 83 % 1025,3 hPa 0,0 l/m 0 min 0 min 0 W/m 0,0 km/h (0 Bft) 95,74 %
10.11.2020 16:54 15,6 C 12,8 C 10,6 C 83 % 1025,3 hPa 0,0 l/m 0 min 0 min 0 W/m 0,0 km/h (0 Bft) 93,75 %
10.11.2020 16:56 15,5 C 12,8 C 10,6 C 84 % 1025,3 hPa 0,0 l/m 0 min 0 min 0 W/m 0,0 km/h (0 Bft) 95,74 %
10.11.2020 16:58 15,4 C 12,8 C 10,6 C 84 % 1025,3 hPa 0,0 l/m 0 min 0 min 0 W/m 0,0 km/h (0 Bft) 93,62 %
10.11.2020 17:00 15,3 C 12,8 C 10,6 C 84 % 1025,4 hPa 0,0 l/m 0 min 0 min 0 W/m 0,0 km/h (0 Bft) 95,74 %
10.11.2020 17:02 15,3 C 12,8 C 10,6 C 84 % 1025,4 hPa 0,0 l/m 0 min 0 min 0 W/m 0,0 km/h (0 Bft) 95,74 %
10.11.2020 17:04 15,1 C 12,8 C 10,6 C 84 % 1025,4 hPa 0,0 l/m 0 min 0 min 0 W/m 0,0 km/h (0 Bft) 93,88 %
10.11.2020 17:06 15,1 C 12,8 C 10,6 C 84 % 1025,5 hPa 0,0 l/m 0 min 0 min 0 W/m 0,0 km/h (0 Bft) 95,74 %
10.11.2020 17:08 15,0 C 12,8 C 10,6 C 84 % 1025,4 hPa 0,0 l/m 0 min 0 min 0 W/m 0,0 km/h (0 Bft) 95,74 %
10.11.2020 17:10 15,0 C 12,8 C 10,0 C 85 % 1025,4 hPa 0,0 l/m 0 min 0 min 0 W/m 0,0 km/h (0 Bft) 95,65 %
10.11.2020 17:12 14,9 C 12,8 C 10,0 C 85 % 1025,5 hPa 0,0 l/m 0 min 0 min 0 W/m 0,0 km/h (0 Bft) 93,62 %
10.11.2020 17:14 14,9 C 12,8 C 10,0 C 85 % 1025,5 hPa 0,0 l/m 0 min 0 min 0 W/m 0,0 km/h (0 Bft) 93,62 %
10.11.2020 17:16 14,8 C 12,8 C 10,0 C 85 % 1025,5 hPa 0,0 l/m 0 min 0 min 0 W/m 0,0 km/h (0 Bft) 93,62 %
10.11.2020 17:18 14,7 C 12,8 C 10,0 C 85 % 1025,5 hPa 0,0 l/m 0 min 0 min 0 W/m 0,0 km/h (0 Bft) 91,49 %
10.11.2020 17:20 14,6 C 12,8 C 10,0 C 85 % 1025,6 hPa 0,0 l/m 0 min 0 min 0 W/m 0,0 km/h (0 Bft) 55,81 %
10.11.2020 17:22 14,6 C 12,8 C 10,0 C 85 % 1025,6 hPa 0,0 l/m 0 min 0 min 0 W/m 0,0 km/h (0 Bft) 93,48 %
10.11.2020 17:24 14,5 C 12,8 C 10,0 C 86 % 1025,5 hPa 0,0 l/m 0 min 0 min 0 W/m 0,0 km/h (0 Bft) 95,74 %
10.11.2020 17:26 14,5 C 12,2 C 10,0 C 86 % 1025,6 hPa 0,0 l/m 0 min 0 min 0 W/m 0,0 km/h (0 Bft) 95,74 %
10.11.2020 17:28 14,4 C 12,2 C 9,5 C 86 % 1025,6 hPa 0,0 l/m 0 min 0 min 0 W/m 0,0 km/h (0 Bft) 97,87 %
10.11.2020 17:30 14,4 C 12,2 C 9,5 C 86 % 1025,5 hPa 0,0 l/m 0 min 0 min 0 W/m 0,0 km/h (0 Bft) 95,74 %
10.11.2020 17:32 14,3 C 11,7 C 9,5 C 86 % 1025,6 hPa 0,0 l/m 0 min 0 min 0 W/m 0,0 km/h (0 Bft) 95,74 %
10.11.2020 17:34 14,2 C 11,7 C 9,5 C 86 % 1025,6 hPa 0,0 l/m 0 min 0 min 0 W/m 0,0 km/h (0 Bft) 95,12 %
10.11.2020 17:36 14,2 C 11,7 C 9,5 C 86 % 1025,6 hPa 0,0 l/m 0 min 0 min 0 W/m 0,0 km/h (0 Bft) 97,87 %
10.11.2020 17:38 14,1 C 11,7 C 9,5 C 86 % 1025,6 hPa 0,0 l/m 0 min 0 min 0 W/m 0,0 km/h (0 Bft) 97,87 %
10.11.2020 17:40 14,0 C 11,7 C 9,5 C 86 % 1025,6 hPa 0,0 l/m 0 min 0 min 0 W/m 0,0 km/h (0 Bft) 95,74 %
10.11.2020 17:42 13,9 C 11,7 C 9,5 C 86 % 1025,6 hPa 0,0 l/m 0 min 0 min 0 W/m 0,0 km/h (0 Bft) 97,87 %
10.11.2020 17:44 13,9 C 11,7 C 9,5 C 86 % 1025,6 hPa 0,0 l/m 0 min 0 min 0 W/m 0,0 km/h (0 Bft) 97,92 %
10.11.2020 17:46 13,8 C 11,7 C 9,5 C 87 % 1025,7 hPa 0,0 l/m 0 min 0 min 0 W/m 0,0 km/h (0 Bft) 97,87 %
10.11.2020 17:48 13,7 C 11,1 C 9,5 C 87 % 1025,7 hPa 0,0 l/m 0 min 0 min 0 W/m 0,0 km/h (0 Bft) 97,92 %
10.11.2020 17:50 13,6 C 11,1 C 9,5 C 87 % 1025,7 hPa 0,0 l/m 0 min 0 min 0 W/m 0,0 km/h (0 Bft) 97,92 %
10.11.2020 17:52 13,6 C 11,1 C 9,5 C 87 % 1025,7 hPa 0,0 l/m 0 min 0 min 0 W/m 0,0 km/h (0 Bft) 97,87 %
10.11.2020 17:54 13,5 C 11,1 C 9,5 C 87 % 1025,8 hPa 0,0 l/m 0 min 0 min 0 W/m 0,0 km/h (0 Bft) 97,92 %
10.11.2020 17:56 13,4 C 11,1 C 8,9 C 87 % 1025,7 hPa 0,0 l/m 0 min 0 min 0 W/m 0,0 km/h (0 Bft) 97,87 %
10.11.2020 17:58 13,4 C 11,1 C 9,5 C 87 % 1025,8 hPa 0,0 l/m 0 min 0 min 0 W/m 0,0 km/h (0 Bft) 97,96 %
10.11.2020 18:00 13,3 C 11,1 C 8,9 C 87 % 1025,8 hPa 0,0 l/m 0 min 0 min 0 W/m 0,0 km/h (0 Bft) 97,87 %
10.11.2020 18:02 13,2 C 11,1 C 8,9 C 87 % 1025,8 hPa 0,0 l/m 0 min 0 min 0 W/m 0,0 km/h (0 Bft) 97,87 %
10.11.2020 18:04 13,1 C 11,1 C 8,9 C 87 % 1025,8 hPa 0,0 l/m 0 min 0 min 0 W/m 0,0 km/h (0 Bft) 100,00 %
10.11.2020 18:08 13,0 C 11,1 C 9,5 C 88 % 1025,8 hPa 0,0 l/m 0 min 0 min 0 W/m 0,0 km/h (0 Bft) 98,92 %
10.11.2020 18:10 13,0 C 11,1 C 9,5 C 88 % 1025,8 hPa 0,0 l/m 0 min 0 min 0 W/m 0,0 km/h (0 Bft) 97,62 %
10.11.2020 18:12 12,9 C 11,1 C 9,5 C 88 % 1025,8 hPa 0,0 l/m 0 min 0 min 0 W/m 0,0 km/h (0 Bft) 97,87 %
10.11.2020 18:14 12,9 C 11,1 C 9,5 C 88 % 1025,8 hPa 0,0 l/m 0 min 0 min 0 W/m 0,0 km/h (0 Bft) 100,00 %
10.11.2020 18:16 12,9 C 11,1 C 9,5 C 89 % 1025,9 hPa 0,0 l/m 0 min 0 min 0 W/m 0,0 km/h (0 Bft) 97,87 %
10.11.2020 18:18 12,8 C 11,1 C 9,5 C 89 % 1026,0 hPa 0,0 l/m 0 min 0 min 0 W/m 0,0 km/h (0 Bft) 97,87 %
10.11.2020 18:20 12,8 C 11,1 C 9,5 C 89 % 1025,9 hPa 0,0 l/m 0 min 0 min 0 W/m 0,0 km/h (0 Bft) 95,65 %
10.11.2020 18:22 12,7 C 11,1 C 9,5 C 89 % 1026,0 hPa 0,0 l/m 0 min 0 min 0 W/m 0,0 km/h (0 Bft) 95,74 %
10.11.2020 18:24 12,7 C 11,1 C 9,5 C 89 % 1025,9 hPa 0,0 l/m 0 min 0 min 0 W/m 0,0 km/h (0 Bft) 97,92 %
10.11.2020 18:26 12,6 C 11,1 C 9,5 C 89 % 1026,0 hPa 0,0 l/m 0 min 0 min 0 W/m 0,0 km/h (0 Bft) 97,87 %
10.11.2020 18:28 12,6 C 11,1 C 9,5 C 90 % 1026,0 hPa 0,0 l/m 0 min 0 min 0 W/m 0,0 km/h (0 Bft) 95,74 %
10.11.2020 18:30 12,6 C 11,1 C 9,5 C 90 % 1026,0 hPa 0,0 l/m 0 min 0 min 0 W/m 0,0 km/h (0 Bft) 95,74 %
10.11.2020 18:32 12,6 C 11,1 C 9,5 C 90 % 1026,1 hPa 0,0 l/m 0 min 0 min 0 W/m 0,0 km/h (0 Bft) 97,83 %
10.11.2020 18:34 12,5 C 11,1 C 9,5 C 90 % 1026,1 hPa 0,0 l/m 0 min 0 min 0 W/m 0,0 km/h (0 Bft) 97,92 %
10.11.2020 18:36 12,5 C 10,6 C 8,9 C 90 % 1026,0 hPa 0,0 l/m 0 min 0 min 0 W/m 0,0 km/h (0 Bft) 95,74 %
10.11.2020 18:38 12,5 C 10,6 C 8,9 C 90 % 1026,1 hPa 0,0 l/m 0 min 0 min 0 W/m 0,0 km/h (0 Bft) 97,87 %
10.11.2020 18:40 12,5 C 10,6 C 8,9 C 90 % 1026,1 hPa 0,0 l/m 0 min 0 min 0 W/m 0,0 km/h (0 Bft) 97,87 %
10.11.2020 18:42 12,4 C 10,6 C 8,9 C 90 % 1026,1 hPa 0,0 l/m 0 min 0 min 0 W/m 0,0 km/h (0 Bft) 97,83 %
10.11.2020 18:44 12,4 C 10,6 C 8,9 C 90 % 1026,1 hPa 0,0 l/m 0 min 0 min 0 W/m 0,0 km/h (0 Bft) 97,92 %
10.11.2020 18:46 12,3 C 10,6 C 8,9 C 91 % 1026,1 hPa 0,0 l/m 0 min 0 min 0 W/m 0,0 km/h (0 Bft) 97,87 %
10.11.2020 18:48 12,3 C 10,6 C 8,4 C 91 % 1026,1 hPa 0,0 l/m 0 min 0 min 0 W/m 0,0 km/h (0 Bft) 97,87 %
10.11.2020 18:50 12,3 C 10,0 C 8,4 C 91 % 1026,1 hPa 0,0 l/m 0 min 0 min 0 W/m 0,0 km/h (0 Bft) 95,74 %
10.11.2020 18:52 12,2 C 10,0 C 8,4 C 91 % 1026,1 hPa 0,0 l/m 0 min 0 min 0 W/m 0,0 km/h (0 Bft) 97,87 %
10.11.2020 18:54 12,1 C 10,0 C 8,4 C 91 % 1026,1 hPa 0,0 l/m 0 min 0 min 0 W/m 0,0 km/h (0 Bft) 97,22 %
10.11.2020 18:56 12,1 C 10,0 C 8,4 C 91 % 1026,1 hPa 0,0 l/m 0 min 0 min 0 W/m 0,0 km/h (0 Bft) 100,00 %
10.11.2020 18:58 12,0 C 10,0 C 8,4 C 91 % 1026,1 hPa 0,0 l/m 0 min 0 min 0 W/m 0,0 km/h (0 Bft) 100,00 %
10.11.2020 19:00 12,0 C 10,0 C 8,4 C 91 % 1026,1 hPa 0,0 l/m 0 min 0 min 0 W/m 0,0 km/h (0 Bft) 100,00 %
10.11.2020 19:02 12,0 C 10,0 C 8,4 C 91 % 1026,1 hPa 0,0 l/m 0 min 0 min 0 W/m 0,0 km/h (0 Bft) 97,87 %
10.11.2020 19:04 11,9 C 10,0 C 8,4 C 91 % 1026,1 hPa 0,0 l/m 0 min 0 min 0 W/m 0,0 km/h (0 Bft) 100,00 %
10.11.2020 19:06 11,9 C 10,0 C 8,4 C 91 % 1026,1 hPa 0,0 l/m 0 min 0 min 0 W/m 0,0 km/h (0 Bft) 97,83 %
10.11.2020 19:08 11,9 C 10,0 C 8,4 C 91 % 1026,1 hPa 0,0 l/m 0 min 0 min 0 W/m 0,0 km/h (0 Bft) 100,00 %
10.11.2020 19:10 11,8 C 10,0 C 8,4 C 91 % 1026,1 hPa 0,0 l/m 0 min 0 min 0 W/m 0,0 km/h (0 Bft) 100,00 %
10.11.2020 19:12 11,8 C 10,0 C 8,4 C 91 % 1026,1 hPa 0,0 l/m 0 min 0 min 0 W/m 0,0 km/h (0 Bft) 100,00 %
10.11.2020 19:14 11,8 C 10,0 C 8,4 C 91 % 1026,0 hPa 0,0 l/m 0 min 0 min 0 W/m 0,0 km/h (0 Bft) 100,00 %
10.11.2020 19:16 11,7 C 10,0 C 8,4 C 91 % 1026,0 hPa 0,0 l/m 0 min 0 min 0 W/m 0,0 km/h (0 Bft) 97,87 %
10.11.2020 19:18 11,7 C 10,6 C 8,4 C 91 % 1026,1 hPa 0,0 l/m 0 min 0 min 0 W/m 0,0 km/h (0 Bft) 100,00 %
10.11.2020 19:20 11,6 C 10,6 C 8,4 C 91 % 1026,0 hPa 0,0 l/m 0 min 0 min 0 W/m 0,0 km/h (0 Bft) 100,00 %
10.11.2020 19:22 11,6 C 10,6 C 8,4 C 91 % 1026,0 hPa 0,0 l/m 0 min 0 min 0 W/m 0,0 km/h (0 Bft) 98,31 %
10.11.2020 19:24 11,6 C 10,6 C 8,4 C 91 % 1026,0 hPa 0,0 l/m 0 min 0 min 0 W/m 0,0 km/h (0 Bft) 100,00 %
10.11.2020 19:26 11,6 C 10,6 C 8,4 C 91 % 1026,0 hPa 0,0 l/m 0 min 0 min 0 W/m 0,0 km/h (0 Bft) 100,00 %
10.11.2020 19:28 11,6 C 10,6 C 8,4 C 91 % 1026,0 hPa 0,0 l/m 0 min 0 min 0 W/m 0,0 km/h (0 Bft) 100,00 %
10.11.2020 19:30 11,6 C 10,6 C 8,4 C 91 % 1026,0 hPa 0,0 l/m 0 min 0 min 0 W/m 0,0 km/h (0 Bft) 100,00 %
10.11.2020 19:32 11,5 C 10,6 C 8,4 C 91 % 1026,0 hPa 0,0 l/m 0 min 0 min 0 W/m 0,0 km/h (0 Bft) 97,14 %
10.11.2020 19:34 11,5 C 10,6 C 8,4 C 91 % 1026,1 hPa 0,0 l/m 0 min 0 min 0 W/m 0,0 km/h (0 Bft) 100,00 %
10.11.2020 19:36 11,5 C 10,6 C 8,9 C 91 % 1026,1 hPa 0,0 l/m 0 min 0 min 0 W/m 0,0 km/h (0 Bft) 100,00 %
10.11.2020 19:38 11,5 C 10,6 C 8,9 C 91 % 1026,1 hPa 0,0 l/m 0 min 0 min 0 W/m 0,0 km/h (0 Bft) 85,11 %
10.11.2020 19:40 11,5 C 11,1 C 8,9 C 91 % 1026,2 hPa 0,0 l/m 0 min 0 min 0 W/m 0,0 km/h (0 Bft) 60,00 %
10.11.2020 19:42 11,5 C 11,1 C 8,9 C 91 % 1026,2 hPa 0,0 l/m 0 min 0 min 0 W/m 0,0 km/h (0 Bft) 97,87 %
10.11.2020 19:44 11,5 C 11,1 C 9,5 C 92 % 1026,2 hPa 0,0 l/m 0 min 0 min 0 W/m 0,0 km/h (0 Bft) 97,87 %
10.11.2020 19:46 11,5 C 11,1 C 9,5 C 92 % 1026,1 hPa 0,0 l/m 0 min 0 min 0 W/m 0,0 km/h (0 Bft) 100,00 %
10.11.2020 19:48 11,5 C 11,1 C 9,5 C 92 % 1026,1 hPa 0,0 l/m 0 min 0 min 0 W/m 0,0 km/h (0 Bft) 100,00 %
10.11.2020 19:50 11,5 C 11,7 C 9,5 C 92 % 1026,1 hPa 0,0 l/m 0 min 0 min 0 W/m 0,0 km/h (0 Bft) 97,92 %
10.11.2020 19:52 11,5 C 11,7 C 10,0 C 92 % 1026,2 hPa 0,0 l/m 0 min 0 min 0 W/m 0,0 km/h (0 Bft) 100,00 %
10.11.2020 19:54 11,6 C 11,7 C 10,0 C 92 % 1026,1 hPa 0,0 l/m 0 min 0 min 0 W/m 0,0 km/h (0 Bft) 100,00 %
10.11.2020 19:56 11,6 C 11,1 C 9,5 C 92 % 1026,2 hPa 0,0 l/m 0 min 0 min 0 W/m 0,0 km/h (0 Bft) 97,92 %
10.11.2020 19:58 11,6 C 11,1 C 9,5 C 93 % 1026,1 hPa 0,0 l/m 0 min 0 min 0 W/m 0,0 km/h (0 Bft) 97,87 %
10.11.2020 20:00 11,6 C 11,1 C 9,5 C 93 % 1026,2 hPa 0,0 l/m 0 min 0 min 0 W/m 0,0 km/h (0 Bft) 95,83 %
10.11.2020 20:02 11,6 C 11,1 C 9,5 C 93 % 1026,1 hPa 0,0 l/m 0 min 0 min 0 W/m 0,0 km/h (0 Bft) 95,74 %
10.11.2020 20:04 11,6 C 11,1 C 9,5 C 93 % 1026,1 hPa 0,0 l/m 0 min 0 min 0 W/m 0,0 km/h (0 Bft) 97,96 %
10.11.2020 20:06 11,6 C 11,1 C 9,5 C 93 % 1026,2 hPa 0,0 l/m 0 min 0 min 0 W/m 0,0 km/h (0 Bft) 97,83 %
10.11.2020 20:08 11,6 C 11,1 C 9,5 C 93 % 1026,1 hPa 0,0 l/m 0 min 0 min 0 W/m 0,0 km/h (0 Bft) 97,87 %
10.11.2020 20:10 11,7 C 11,1 C 9,5 C 93 % 1026,1 hPa 0,0 l/m 0 min 0 min 0 W/m 0,0 km/h (0 Bft) 97,87 %
10.11.2020 20:12 11,7 C 11,1 C 9,5 C 93 % 1026,1 hPa 0,0 l/m 0 min 0 min 0 W/m 0,0 km/h (0 Bft) 97,87 %
10.11.2020 20:14 11,7 C 11,1 C 9,5 C 93 % 1026,0 hPa 0,0 l/m 0 min 0 min 0 W/m 0,0 km/h (0 Bft) 97,87 %
10.11.2020 20:16 11,7 C 11,1 C 9,5 C 93 % 1026,1 hPa 0,0 l/m 0 min 0 min 0 W/m 0,0 km/h (0 Bft) 93,48 %
10.11.2020 20:18 11,7 C 11,1 C 9,5 C 93 % 1026,1 hPa 0,0 l/m 0 min 0 min 0 W/m 0,0 km/h (0 Bft) 95,74 %
10.11.2020 20:20 11,7 C 11,1 C 9,5 C 93 % 1026,1 hPa 0,0 l/m 0 min 0 min 0 W/m 0,0 km/h (0 Bft) 97,87 %
10.11.2020 20:22 11,7 C 11,1 C 9,5 C 93 % 1026,1 hPa 0,0 l/m 0 min 0 min 0 W/m 0,0 km/h (0 Bft) 97,87 %
10.11.2020 20:24 11,7 C 11,1 C 9,5 C 93 % 1026,1 hPa 0,0 l/m 0 min 0 min 0 W/m 0,0 km/h (0 Bft) 97,87 %
10.11.2020 20:26 11,7 C 11,1 C 9,5 C 93 % 1026,1 hPa 0,0 l/m 0 min 0 min 0 W/m 0,0 km/h (0 Bft) 95,74 %
10.11.2020 20:28 11,7 C 10,6 C 9,5 C 93 % 1026,1 hPa 0,0 l/m 0 min 0 min 0 W/m 0,0 km/h (0 Bft) 97,83 %
10.11.2020 20:30 11,7 C 10,6 C 8,9 C 93 % 1026,1 hPa 0,0 l/m 0 min 0 min 0 W/m 0,0 km/h (0 Bft) 96,00 %
10.11.2020 20:32 11,7 C 10,6 C 8,9 C 93 % 1026,1 hPa 0,0 l/m 0 min 0 min 0 W/m 0,0 km/h (0 Bft) 93,62 %
10.11.2020 20:34 11,7 C 10,6 C 8,9 C 93 % 1026,1 hPa 0,0 l/m 0 min 0 min 0 W/m 0,0 km/h (0 Bft) 95,74 %
10.11.2020 20:36 11,7 C 10,6 C 8,9 C 93 % 1026,1 hPa 0,0 l/m 0 min 0 min 0 W/m 0,0 km/h (0 Bft) 95,12 %
10.11.2020 20:38 11,7 C 10,6 C 8,9 C 93 % 1026,1 hPa 0,0 l/m 0 min 0 min 0 W/m 0,0 km/h (0 Bft) 96,00 %
10.11.2020 20:40 11,6 C 10,6 C 8,9 C 93 % 1026,1 hPa 0,0 l/m 0 min 0 min 0 W/m 0,0 km/h (0 Bft) 95,65 %
10.11.2020 20:42 11,6 C 10,6 C 8,9 C 93 % 1026,1 hPa 0,0 l/m 0 min 0 min 0 W/m 0,0 km/h (0 Bft) 96,00 %
10.11.2020 20:44 11,6 C 10,6 C 8,9 C 93 % 1026,1 hPa 0,0 l/m 0 min 0 min 0 W/m 0,0 km/h (0 Bft) 94,29 %
10.11.2020 20:46 11,6 C 10,6 C 9,5 C 93 % 1026,1 hPa 0,0 l/m 0 min 0 min 0 W/m 0,0 km/h (0 Bft) 96,23 %
10.11.2020 20:48 11,6 C 10,6 C 9,5 C 93 % 1026,2 hPa 0,0 l/m 0 min 0 min 0 W/m 0,0 km/h (0 Bft) 95,74 %
10.11.2020 20:50 11,6 C 10,6 C 9,5 C 93 % 1026,2 hPa 0,0 l/m 0 min 0 min 0 W/m 0,0 km/h (0 Bft) 97,87 %
10.11.2020 20:52 11,6 C 10,6 C 9,5 C 93 % 1026,2 hPa 0,0 l/m 0 min 0 min 0 W/m 0,0 km/h (0 Bft) 95,65 %
10.11.2020 20:54 11,6 C 10,6 C 9,5 C 93 % 1026,3 hPa 0,0 l/m 0 min 0 min 0 W/m 0,0 km/h (0 Bft) 97,87 %
10.11.2020 20:56 11,5 C 10,6 C 9,5 C 93 % 1026,3 hPa 0,0 l/m 0 min 0 min 0 W/m 0,0 km/h (0 Bft) 97,87 %
10.11.2020 20:58 11,5 C 10,6 C 9,5 C 94 % 1026,3 hPa 0,0 l/m 0 min 0 min 0 W/m 0,0 km/h (0 Bft) 97,87 %
10.11.2020 21:00 11,5 C 10,6 C 9,5 C 94 % 1026,3 hPa 0,0 l/m 0 min 0 min 0 W/m 0,0 km/h (0 Bft) 98,00 %
10.11.2020 21:02 11,5 C 10,6 C 9,5 C 94 % 1026,4 hPa 0,0 l/m 0 min 0 min 0 W/m 0,0 km/h (0 Bft) 97,96 %
10.11.2020 21:04 11,5 C 11,1 C 9,5 C 94 % 1026,4 hPa 0,0 l/m 0 min 0 min 0 W/m 0,0 km/h (0 Bft) 97,87 %
10.11.2020 21:06 11,5 C 11,1 C 9,5 C 94 % 1026,4 hPa 0,0 l/m 0 min 0 min 0 W/m 0,0 km/h (0 Bft) 97,87 %
10.11.2020 21:08 11,5 C 11,1 C 9,5 C 94 % 1026,5 hPa 0,0 l/m 0 min 0 min 0 W/m 0,0 km/h (0 Bft) 97,87 %
10.11.2020 21:10 11,5 C 11,1 C 9,5 C 94 % 1026,5 hPa 0,0 l/m 0 min 0 min 0 W/m 0,0 km/h (0 Bft) 95,74 %
10.11.2020 21:12 11,5 C 11,1 C 9,5 C 94 % 1026,5 hPa 0,0 l/m 0 min 0 min 0 W/m 0,0 km/h (0 Bft) 97,56 %
10.11.2020 21:14 11,5 C 11,1 C 9,5 C 94 % 1026,5 hPa 0,0 l/m 0 min 0 min 0 W/m 0,0 km/h (0 Bft) 100,00 %
10.11.2020 21:16 11,5 C 11,1 C 9,5 C 94 % 1026,5 hPa 0,0 l/m 0 min 0 min 0 W/m 3,2 km/h (1 Bft) 100,00 %
10.11.2020 21:18 11,5 C 11,1 C 10,0 C 94 % 1026,5 hPa 0,0 l/m 0 min 0 min 0 W/m 0,0 km/h (0 Bft) 98,00 %
10.11.2020 21:20 11,5 C 11,1 C 10,0 C 94 % 1026,5 hPa 0,0 l/m 0 min 0 min 0 W/m 3,2 km/h (1 Bft) 97,87 %
10.11.2020 21:22 11,5 C 11,1 C 10,0 C 94 % 1026,6 hPa 0,0 l/m 0 min 0 min 0 W/m 0,0 km/h (0 Bft) 97,56 %
10.11.2020 21:24 11,5 C 11,1 C 10,0 C 94 % 1026,5 hPa 0,0 l/m 0 min 0 min 0 W/m 0,0 km/h (0 Bft) 98,00 %
10.11.2020 21:26 11,5 C 11,1 C 10,0 C 94 % 1026,5 hPa 0,0 l/m 0 min 0 min 0 W/m 0,0 km/h (0 Bft) 97,83 %
10.11.2020 21:28 11,5 C 11,1 C 10,0 C 94 % 1026,5 hPa 0,0 l/m 0 min 0 min 0 W/m 0,0 km/h (0 Bft) 97,87 %
10.11.2020 21:30 11,6 C 11,1 C 10,0 C 94 % 1026,5 hPa 0,0 l/m 0 min 0 min 0 W/m 3,2 km/h (1 Bft) 96,00 %
10.11.2020 21:32 11,5 C 11,1 C 10,0 C 94 % 1026,5 hPa 0,0 l/m 0 min 0 min 0 W/m 0,0 km/h (0 Bft) 97,87 %
10.11.2020 21:34 11,6 C 11,1 C 10,0 C 94 % 1026,6 hPa 0,0 l/m 0 min 0 min 0 W/m 0,0 km/h (0 Bft) 95,74 %
10.11.2020 21:36 11,6 C 11,1 C 10,0 C 94 % 1026,6 hPa 0,0 l/m 0 min 0 min 0 W/m 0,0 km/h (0 Bft) 97,56 %
10.11.2020 21:38 11,6 C 11,1 C 10,0 C 94 % 1026,6 hPa 0,0 l/m 0 min 0 min 0 W/m 3,2 km/h (1 Bft) 95,83 %
10.11.2020 21:40 11,6 C 11,1 C 10,0 C 94 % 1026,6 hPa 0,0 l/m 0 min 0 min 0 W/m 3,2 km/h (1 Bft) 97,83 %
10.11.2020 21:42 11,6 C 11,1 C 10,0 C 94 % 1026,6 hPa 0,0 l/m 0 min 0 min 0 W/m 6,4 km/h (2 Bft) 96,00 %
10.11.2020 21:44 11,6 C 11,1 C 10,0 C 95 % 1026,7 hPa 0,0 l/m 0 min 0 min 0 W/m 3,2 km/h (1 Bft) 97,96 %
10.11.2020 21:46 11,6 C 11,1 C 10,0 C 95 % 1026,7 hPa 0,0 l/m 0 min 0 min 0 W/m 3,2 km/h (1 Bft) 97,14 %
10.11.2020 21:48 11,6 C 11,1 C 10,0 C 95 % 1026,6 hPa 0,0 l/m 0 min 0 min 0 W/m 3,2 km/h (1 Bft) 98,15 %
10.11.2020 21:50 11,6 C 11,1 C 10,0 C 95 % 1026,7 hPa 0,0 l/m 0 min 0 min 0 W/m 0,0 km/h (0 Bft) 97,83 %
10.11.2020 21:52 11,6 C 11,1 C 10,0 C 95 % 1026,7 hPa 0,0 l/m 0 min 0 min 0 W/m 0,0 km/h (0 Bft) 98,00 %
10.11.2020 21:54 11,7 C 11,1 C 10,0 C 95 % 1026,6 hPa 0,0 l/m 0 min 0 min 0 W/m 0,0 km/h (0 Bft) 97,96 %
10.11.2020 21:56 11,7 C 11,1 C 10,0 C 95 % 1026,7 hPa 0,0 l/m 0 min 0 min 0 W/m 0,0 km/h (0 Bft) 95,74 %
10.11.2020 21:58 11,7 C 11,1 C 10,0 C 95 % 1026,6 hPa 0,0 l/m 0 min 0 min 0 W/m 0,0 km/h (0 Bft) 97,87 %
10.11.2020 22:00 11,7 C 11,1 C 10,0 C 95 % 1026,6 hPa 0,0 l/m 0 min 0 min 0 W/m 0,0 km/h (0 Bft) 97,14 %
10.11.2020 22:02 11,7 C 11,1 C 10,0 C 95 % 1026,6 hPa 0,0 l/m 0 min 0 min 0 W/m 0,0 km/h (0 Bft) 95,74 %
10.11.2020 22:04 11,7 C 11,1 C 10,0 C 95 % 1026,7 hPa 0,0 l/m 0 min 0 min 0 W/m 0,0 km/h (0 Bft) 97,83 %
10.11.2020 22:06 11,7 C 11,7 C 10,0 C 95 % 1026,7 hPa 0,0 l/m 0 min 0 min 0 W/m 0,0 km/h (0 Bft) 98,15 %
10.11.2020 22:08 11,7 C 11,1 C 10,0 C 95 % 1026,7 hPa 0,0 l/m 0 min 0 min 0 W/m 0,0 km/h (0 Bft) 98,08 %
10.11.2020 22:10 11,7 C 11,1 C 10,0 C 95 % 1026,7 hPa 0,0 l/m 0 min 0 min 0 W/m 0,0 km/h (0 Bft) 97,87 %
10.11.2020 22:12 11,8 C 11,7 C 10,0 C 95 % 1026,8 hPa 0,0 l/m 0 min 0 min 0 W/m 0,0 km/h (0 Bft) 97,83 %
10.11.2020 22:14 11,8 C 11,1 C 10,0 C 95 % 1026,8 hPa 0,0 l/m 0 min 0 min 0 W/m 0,0 km/h (0 Bft) 97,56 %
10.11.2020 22:16 11,8 C 11,7 C 10,0 C 95 % 1026,7 hPa 0,0 l/m 0 min 0 min 0 W/m 0,0 km/h (0 Bft) 97,87 %
10.11.2020 22:18 11,8 C 11,1 C 10,0 C 95 % 1026,7 hPa 0,0 l/m 0 min 0 min 0 W/m 0,0 km/h (0 Bft) 95,74 %
10.11.2020 22:20 11,8 C 11,7 C 10,0 C 95 % 1026,7 hPa 0,0 l/m 0 min 0 min 0 W/m 6,4 km/h (2 Bft) 97,87 %
10.11.2020 22:22 11,8 C 11,7 C 10,0 C 95 % 1026,7 hPa 0,0 l/m 0 min 0 min 0 W/m 3,2 km/h (1 Bft) 100,00 %
10.11.2020 22:24 11,8 C 11,7 C 10,0 C 95 % 1026,7 hPa 0,0 l/m 0 min 0 min 0 W/m 3,2 km/h (1 Bft) 97,87 %
10.11.2020 22:26 11,8 C 11,7 C 10,0 C 95 % 1026,7 hPa 0,0 l/m 0 min 0 min 0 W/m 12,9 km/h (3 Bft) 100,00 %
10.11.2020 22:28 11,8 C 11,1 C 10,0 C 95 % 1026,7 hPa 0,0 l/m 0 min 0 min 0 W/m 6,4 km/h (2 Bft) 100,00 %
10.11.2020 22:30 11,9 C 11,1 C 10,0 C 95 % 1026,7 hPa 0,0 l/m 0 min 0 min 0 W/m 0,0 km/h (0 Bft) 100,00 %
10.11.2020 22:32 11,8 C 11,1 C 10,0 C 95 % 1026,7 hPa 0,0 l/m 0 min 0 min 0 W/m 0,0 km/h (0 Bft) 100,00 %
10.11.2020 22:34 11,9 C 11,7 C 10,0 C 95 % 1026,7 hPa 0,0 l/m 0 min 0 min 0 W/m 12,9 km/h (3 Bft) 100,00 %
10.11.2020 22:36 11,9 C 11,7 C 10,0 C 95 % 1026,7 hPa 0,0 l/m 0 min 0 min 0 W/m 6,4 km/h (2 Bft) 100,00 %
10.11.2020 22:38 11,9 C 11,7 C 10,0 C 95 % 1026,8 hPa 0,0 l/m 0 min 0 min 0 W/m 0,0 km/h (0 Bft) 100,00 %
10.11.2020 22:40 11,9 C 11,7 C 10,0 C 95 % 1026,7 hPa 0,0 l/m 0 min 0 min 0 W/m 0,0 km/h (0 Bft) 100,00 %
10.11.2020 22:42 11,9 C 11,7 C 10,0 C 95 % 1026,7 hPa 0,0 l/m 0 min 0 min 0 W/m 3,2 km/h (1 Bft) 100,00 %
10.11.2020 22:44 11,9 C 11,7 C 10,0 C 95 % 1026,8 hPa 0,0 l/m 0 min 0 min 0 W/m 0,0 km/h (0 Bft) 96,00 %
10.11.2020 22:46 11,9 C 11,7 C 10,0 C 95 % 1026,7 hPa 0,0 l/m 0 min 0 min 0 W/m 0,0 km/h (0 Bft) 100,00 %
10.11.2020 22:48 11,9 C 11,7 C 10,0 C 95 % 1026,7 hPa 0,0 l/m 0 min 0 min 0 W/m 0,0 km/h (0 Bft) 97,83 %
10.11.2020 22:50 11,9 C 11,1 C 10,0 C 95 % 1026,7 hPa 0,0 l/m 0 min 0 min 0 W/m 0,0 km/h (0 Bft) 97,87 %
10.11.2020 22:52 11,9 C 11,1 C 10,0 C 95 % 1026,7 hPa 0,0 l/m 0 min 0 min 0 W/m 0,0 km/h (0 Bft) 95,74 %
10.11.2020 22:54 11,9 C 11,1 C 10,0 C 95 % 1026,8 hPa 0,0 l/m 0 min 0 min 0 W/m 0,0 km/h (0 Bft) 95,74 %
10.11.2020 22:56 11,9 C 11,1 C 10,6 C 95 % 1026,7 hPa 0,0 l/m 0 min 0 min 0 W/m 0,0 km/h (0 Bft) 97,87 %
10.11.2020 22:58 11,9 C 11,1 C 10,0 C 95 % 1026,7 hPa 0,0 l/m 0 min 0 min 0 W/m 0,0 km/h (0 Bft) 97,87 %
10.11.2020 23:00 11,9 C 11,1 C 10,0 C 95 % 1026,7 hPa 0,0 l/m 0 min 0 min 0 W/m 0,0 km/h (0 Bft) 97,96 %
10.11.2020 23:02 11,9 C 11,1 C 10,0 C 95 % 1026,7 hPa 0,0 l/m 0 min 0 min 0 W/m 0,0 km/h (0 Bft) 95,74 %
10.11.2020 23:04 11,9 C 11,1 C 10,0 C 95 % 1026,7 hPa 0,0 l/m 0 min 0 min 0 W/m 0,0 km/h (0 Bft) 93,62 %
10.11.2020 23:06 11,9 C 11,1 C 10,0 C 95 % 1026,7 hPa 0,0 l/m 0 min 0 min 0 W/m 0,0 km/h (0 Bft) 95,74 %
10.11.2020 23:08 11,9 C 11,1 C 10,0 C 95 % 1026,7 hPa 0,0 l/m 0 min 0 min 0 W/m 0,0 km/h (0 Bft) 93,62 %
10.11.2020 23:10 11,9 C 11,1 C 10,6 C 95 % 1026,7 hPa 0,0 l/m 0 min 0 min 0 W/m 0,0 km/h (0 Bft) 95,65 %
10.11.2020 23:12 11,9 C 11,1 C 10,6 C 95 % 1026,7 hPa 0,0 l/m 0 min 0 min 0 W/m 0,0 km/h (0 Bft) 92,68 %
10.11.2020 23:14 11,9 C 11,1 C 10,0 C 95 % 1026,7 hPa 0,0 l/m 0 min 0 min 0 W/m 0,0 km/h (0 Bft) 96,00 %
10.11.2020 23:16 11,9 C 11,1 C 10,0 C 95 % 1026,7 hPa 0,0 l/m 0 min 2 min 0 W/m 0,0 km/h (0 Bft) 93,62 %
10.11.2020 23:18 11,9 C 11,1 C 10,0 C 95 % 1026,7 hPa 0,0 l/m 0 min 0 min 0 W/m 0,0 km/h (0 Bft) 95,83 %
10.11.2020 23:20 11,9 C 11,1 C 10,0 C 95 % 1026,6 hPa 0,0 l/m 0 min 0 min 0 W/m 0,0 km/h (0 Bft) 95,74 %
10.11.2020 23:22 11,9 C 11,1 C 10,0 C 95 % 1026,6 hPa 0,0 l/m 0 min 0 min 0 W/m 0,0 km/h (0 Bft) 95,65 %
10.11.2020 23:24 12,0 C 11,1 C 10,0 C 95 % 1026,7 hPa 0,0 l/m 0 min 0 min 0 W/m 0,0 km/h (0 Bft) 95,74 %
10.11.2020 23:26 12,0 C 10,6 C 10,0 C 95 % 1026,7 hPa 0,0 l/m 0 min 2 min 0 W/m 0,0 km/h (0 Bft) 93,88 %
10.11.2020 23:28 12,0 C 10,6 C 10,0 C 95 % 1026,7 hPa 0,0 l/m 0 min 2 min 0 W/m 0,0 km/h (0 Bft) 97,14 %
10.11.2020 23:30 12,0 C 10,6 C 10,0 C 95 % 1026,7 hPa 0,0 l/m 0 min 2 min 0 W/m 0,0 km/h (0 Bft) 93,62 %
10.11.2020 23:32 12,0 C 10,6 C 10,0 C 95 % 1026,7 hPa 0,2 l/m 0 min 2 min 0 W/m 0,0 km/h (0 Bft) 95,74 %
10.11.2020 23:34 12,0 C 10,6 C 10,0 C 96 % 1026,6 hPa 0,0 l/m 0 min 2 min 0 W/m 0,0 km/h (0 Bft) 95,74 %
10.11.2020 23:36 12,0 C 10,6 C 10,0 C 96 % 1026,7 hPa 0,2 l/m 0 min 2 min 0 W/m 0,0 km/h (0 Bft) 96,23 %
10.11.2020 23:38 12,0 C 10,6 C 10,0 C 96 % 1026,7 hPa 0,0 l/m 0 min 2 min 0 W/m 0,0 km/h (0 Bft) 97,87 %
10.11.2020 23:40 12,0 C 10,6 C 10,0 C 96 % 1026,7 hPa 0,0 l/m 0 min 2 min 0 W/m 0,0 km/h (0 Bft) 98,00 %
10.11.2020 23:42 12,0 C 11,1 C 10,6 C 96 % 1026,7 hPa 0,0 l/m 0 min 2 min 0 W/m 0,0 km/h (0 Bft) 95,74 %
10.11.2020 23:44 12,1 C 11,1 C 10,6 C 96 % 1026,7 hPa 0,2 l/m 0 min 2 min 0 W/m 3,2 km/h (1 Bft) 97,87 %
10.11.2020 23:46 12,1 C 11,1 C 10,6 C 96 % 1026,7 hPa 0,0 l/m 0 min 0 min 0 W/m 0,0 km/h (0 Bft) 97,83 %
10.11.2020 23:48 12,1 C 11,1 C 10,6 C 96 % 1026,7 hPa 0,0 l/m 0 min 0 min 0 W/m 0,0 km/h (0 Bft) 100,00 %
10.11.2020 23:50 12,2 C 11,1 C 10,6 C 96 % 1026,7 hPa 0,0 l/m 0 min 0 min 0 W/m 3,2 km/h (1 Bft) 100,00 %
10.11.2020 23:52 12,2 C 11,1 C 10,6 C 96 % 1026,7 hPa 0,0 l/m 0 min 0 min 0 W/m 3,2 km/h (1 Bft) 100,00 %
10.11.2020 23:54 12,3 C 11,1 C 10,6 C 96 % 1026,7 hPa 0,0 l/m 0 min 0 min 0 W/m 0,0 km/h (0 Bft) 100,00 %
10.11.2020 23:56 12,3 C 11,1 C 10,6 C 96 % 1026,7 hPa 0,0 l/m 0 min 0 min 0 W/m 0,0 km/h (0 Bft) 100,00 %
10.11.2020 23:58 12,3 C 11,1 C 10,6 C 96 % 1026,7 hPa 0,0 l/m 0 min 0 min 0 W/m 0,0 km/h (0 Bft) 98,18 %
_ Min-Zeit 08:06 06:48 08:04 14:58 00:00 - - - - 00:12 17:20
Minimum _ 8,1 C 7,2 C 6,7 C 80 % 1023,8 hPa - - - - 0,0 km/h (0 Bft) 55,81 %
_ Max-Zeit 14:50 13:46 14:14 09:28 22:12 14:06 10:02 23:16 13:36 01:16 00:32
Maximum _ 17,5 C 22,2 C 21,1 C 99 % 1026,8 hPa 0,2 l/m 4 min 2 min 438 W/m 19,3 km/h
SO (3 Bft)
100,00 %
Durchschnitt _ 11,8 C 12,0 C 10,1 C 93 % 1025,2 hPa #0,8 l/m #6:42 h #22 min. 200 W/m 4,2 km/h (1 Bft) 97,16 %
© 2020 W. Hausmann